Observation data for Reese Center on 08/07/2020      Previous  Date  Next       Current Mesonet Observations  Soil Data  Daily Summary Page  Observations in Plain Language
KREE 070500Z 17007KT 24/14 A2999 RMK A01 T02400143  RH  054%=      5-min Rain = 0
KREE 070501Z 17008KT 24/14 A2999 RMK A01 T02400142  RH  054%=      5-min Rain = 0
KREE 070502Z 17007KT 24/14 A2999 RMK A01 T02400142  RH  054%=      5-min Rain = 0
KREE 070503Z 16008KT 24/14 A2999 RMK A01 T02400142  RH  054%=      5-min Rain = 0
KREE 070504Z 16008KT 24/14 A2999 RMK A01 T02400142  RH  054%=      5-min Rain = 0
KREE 070505Z 17008KT 24/14 A2999 RMK A01 T02400142  RH  054%=      5-min Rain = 0
KREE 070506Z 17008KT 24/14 A2999 RMK A01 T02400142  RH  054%=      5-min Rain = 0
KREE 070507Z 18008KT 24/14 A2999 RMK A01 T02400142  RH  054%=      5-min Rain = 0
KREE 070508Z 18009KT 24/14 A2999 RMK A01 T02410142  RH  054%=      5-min Rain = 0
KREE 070509Z 18009KT 24/14 A2999 RMK A01 T02410141  RH  053%=      5-min Rain = 0
KREE 070510Z 18009KT 24/14 A2999 RMK A01 T02420140  RH  053%=      5-min Rain = 0
KREE 070511Z 18009KT 24/14 A2999 RMK A01 T02430140  RH  053%=      5-min Rain = 0
KREE 070512Z 18009KT 24/14 A2999 RMK A01 T02440140  RH  052%=      5-min Rain = 0
KREE 070513Z 19009KT 24/14 A2999 RMK A01 T02440140  RH  052%=      5-min Rain = 0
KREE 070514Z 19009KT 24/14 A2999 RMK A01 T02440141  RH  053%=      5-min Rain = 0
KREE 070515Z 19009KT 24/14 A2999 RMK A01 T02430141  RH  053%=      5-min Rain = 0
KREE 070516Z 19009KT 24/14 A2999 RMK A01 T02430141  RH  053%=      5-min Rain = 0
KREE 070517Z 19009KT 24/14 A2999 RMK A01 T02430141  RH  053%=      5-min Rain = 0
KREE 070518Z 19009KT 24/14 A2999 RMK A01 T02430141  RH  053%=      5-min Rain = 0
KREE 070519Z 19009KT 24/14 A2999 RMK A01 T02430141  RH  053%=      5-min Rain = 0
KREE 070520Z 19009KT 24/14 A2999 RMK A01 T02430141  RH  053%=      5-min Rain = 0
KREE 070521Z 19009KT 24/14 A2999 RMK A01 T02430142  RH  053%=      5-min Rain = 0
KREE 070522Z 19009KT 24/14 A2999 RMK A01 T02420142  RH  053%=      5-min Rain = 0
KREE 070523Z 20009KT 24/14 A2999 RMK A01 T02420142  RH  053%=      5-min Rain = 0
KREE 070524Z 20009KT 24/14 A2999 RMK A01 T02420141  RH  053%=      5-min Rain = 0
KREE 070525Z 20009KT 24/14 A2999 RMK A01 T02410142  RH  054%=      5-min Rain = 0
KREE 070526Z 20008KT 24/14 A2999 RMK A01 T02400143  RH  055%=      5-min Rain = 0
KREE 070527Z 20008KT 24/14 A2999 RMK A01 T02390144  RH  055%=      5-min Rain = 0
KREE 070528Z 20009KT 24/15 A2999 RMK A01 T02380145  RH  056%=      5-min Rain = 0
KREE 070529Z 20009KT 24/15 A2999 RMK A01 T02370145  RH  057%=      5-min Rain = 0
KREE 070530Z 20009KT 24/15 A2999 RMK A01 T02350146  RH  057%=      5-min Rain = 0
KREE 070531Z 20009KT 23/15 A2999 RMK A01 T02340146  RH  058%=      5-min Rain = 0
KREE 070532Z 20009KT 23/15 A2999 RMK A01 T02340146  RH  058%=      5-min Rain = 0
KREE 070533Z 20010KT 23/15 A2999 RMK A01 T02340146  RH  058%=      5-min Rain = 0
KREE 070534Z 20009KT 24/15 A2999 RMK A01 T02350146  RH  057%=      5-min Rain = 0
KREE 070535Z 20009KT 24/15 A2999 RMK A01 T02350146  RH  057%=      5-min Rain = 0
KREE 070536Z 20010KT 24/15 A2999 RMK A01 T02360146  RH  057%=      5-min Rain = 0
KREE 070537Z 20010KT 24/15 A2999 RMK A01 T02360147  RH  057%=      5-min Rain = 0
KREE 070538Z 20010KT 24/15 A2999 RMK A01 T02370147  RH  057%=      5-min Rain = 0
KREE 070539Z 20010KT 24/15 A2999 RMK A01 T02370147  RH  057%=      5-min Rain = 0
KREE 070540Z 20010KT 24/15 A2999 RMK A01 T02380147  RH  057%=      5-min Rain = 0
KREE 070541Z 20010KT 24/15 A2999 RMK A01 T02380147  RH  057%=      5-min Rain = 0
KREE 070542Z 19011KT 24/15 A2999 RMK A01 T02390147  RH  056%=      5-min Rain = 0
KREE 070543Z 19011KT 24/15 A2999 RMK A01 T02390147  RH  056%=      5-min Rain = 0
KREE 070544Z 19011KT 24/15 A2998 RMK A01 T02410146  RH  056%=      5-min Rain = 0
KREE 070545Z 19011KT 24/15 A2998 RMK A01 T02420146  RH  055%=      5-min Rain = 0
KREE 070546Z 19011KT 24/15 A2998 RMK A01 T02430146  RH  055%=      5-min Rain = 0
KREE 070547Z 19011KT 24/15 A2998 RMK A01 T02430146  RH  055%=      5-min Rain = 0
KREE 070548Z 19011KT 24/15 A2998 RMK A01 T02440146  RH  054%=      5-min Rain = 0
KREE 070549Z 19011KT 24/15 A2998 RMK A01 T02440146  RH  054%=      5-min Rain = 0
KREE 070550Z 19011KT 24/15 A2998 RMK A01 T02440147  RH  055%=      5-min Rain = 0
KREE 070551Z 19011KT 24/15 A2998 RMK A01 T02440147  RH  055%=      5-min Rain = 0
KREE 070552Z 19011KT 24/15 A2998 RMK A01 T02440148  RH  055%=      5-min Rain = 0
KREE 070553Z 19011KT 24/15 A2998 RMK A01 T02430148  RH  055%=      5-min Rain = 0
KREE 070554Z 19010KT 24/15 A2998 RMK A01 T02430148  RH  055%=      5-min Rain = 0
KREE 070555Z 19011KT 24/15 A2998 RMK A01 T02430148  RH  056%=      5-min Rain = 0
KREE 070556Z 19011KT 24/15 A2998 RMK A01 T02430148  RH  056%=      5-min Rain = 0
KREE 070557Z 19011KT 24/15 A2998 RMK A01 T02430148  RH  056%=      5-min Rain = 0
KREE 070558Z 19011KT 24/15 A2998 RMK A01 T02430148  RH  056%=      5-min Rain = 0
KREE 070559Z 19011KT 24/15 A2998 RMK A01 T02430148  RH  056%=      5-min Rain = 0
KREE 070600Z 19011KT 24/15 A2998 RMK A01 T02430149  RH  056%=      5-min Rain = 0
KREE 070601Z 19011KT 24/15 A2998 RMK A01 T02430148  RH  055%=      5-min Rain = 0
KREE 070602Z 19010KT 24/15 A2998 RMK A01 T02440148  RH  055%=      5-min Rain = 0
KREE 070603Z 19011KT 24/15 A2998 RMK A01 T02440148  RH  055%=      5-min Rain = 0
KREE 070604Z 19011KT 24/15 A2998 RMK A01 T02440148  RH  055%=      5-min Rain = 0
KREE 070605Z 19011KT 25/15 A2998 RMK A01 T02450148  RH  055%=      5-min Rain = 0
KREE 070606Z 19012KT 25/15 A2998 RMK A01 T02460147  RH  054%=      5-min Rain = 0
KREE 070607Z 19012KT 25/15 A2998 RMK A01 T02470147  RH  054%=      5-min Rain = 0
KREE 070608Z 19011KT 25/15 A2998 RMK A01 T02480147  RH  053%=      5-min Rain = 0
KREE 070609Z 19012KT 25/15 A2999 RMK A01 T02480147  RH  053%=      5-min Rain = 0
KREE 070610Z 19011KT 25/15 A2999 RMK A01 T02480147  RH  053%=      5-min Rain = 0
KREE 070611Z 19012KT 25/15 A2999 RMK A01 T02490147  RH  053%=      5-min Rain = 0
KREE 070612Z 19013KT 25/15 A2999 RMK A01 T02490146  RH  053%=      5-min Rain = 0
KREE 070613Z 19012KT 25/15 A2999 RMK A01 T02500146  RH  052%=      5-min Rain = 0
KREE 070614Z 19012KT 25/15 A2999 RMK A01 T02510146  RH  052%=      5-min Rain = 0
KREE 070615Z 19012KT 25/15 A2999 RMK A01 T02510146  RH  052%=      5-min Rain = 0
KREE 070616Z 19013KT 25/15 A2999 RMK A01 T02510146  RH  052%=      5-min Rain = 0
KREE 070617Z 18012KT 25/15 A2999 RMK A01 T02520146  RH  052%=      5-min Rain = 0
KREE 070618Z 18012KT 25/15 A2999 RMK A01 T02520146  RH  052%=      5-min Rain = 0
KREE 070619Z 18011KT 25/15 A2999 RMK A01 T02530146  RH  051%=      5-min Rain = 0
KREE 070620Z 18013KT 25/15 A2999 RMK A01 T02530146  RH  051%=      5-min Rain = 0
KREE 070621Z 18012KT 25/15 A2999 RMK A01 T02530145  RH  051%=      5-min Rain = 0
KREE 070622Z 18011KT 25/15 A2999 RMK A01 T02530146  RH  051%=      5-min Rain = 0
KREE 070623Z 18011KT 25/15 A2999 RMK A01 T02530146  RH  051%=      5-min Rain = 0
KREE 070624Z 18012KT 25/15 A2999 RMK A01 T02530145  RH  051%=      5-min Rain = 0
KREE 070625Z 18012KT 25/15 A2999 RMK A01 T02530145  RH  051%=      5-min Rain = 0
KREE 070626Z 18012KT 25/15 A2999 RMK A01 T02540146  RH  051%=      5-min Rain = 0
KREE 070627Z 18011KT 25/15 A2999 RMK A01 T02540146  RH  051%=      5-min Rain = 0
KREE 070628Z 18012KT 25/15 A2999 RMK A01 T02540146  RH  051%=      5-min Rain = 0
KREE 070629Z 18012KT 25/15 A2999 RMK A01 T02540146  RH  051%=      5-min Rain = 0
KREE 070630Z 19011KT 25/15 A2999 RMK A01 T02540146  RH  051%=      5-min Rain = 0
KREE 070631Z 19011KT 25/15 A30 RMK A01 T02540147  RH  052%=      5-min Rain = 0
KREE 070632Z 19011KT 25/15 A30 RMK A01 T02530147  RH  052%=      5-min Rain = 0
KREE 070633Z 19010KT 25/15 A30 RMK A01 T02530147  RH  052%=      5-min Rain = 0
KREE 070634Z 19011KT 25/15 A30 RMK A01 T02520147  RH  052%=      5-min Rain = 0
KREE 070635Z 19010KT 25/15 A30 RMK A01 T02520147  RH  052%=      5-min Rain = 0
KREE 070636Z 19010KT 25/15 A30 RMK A01 T02520148  RH  052%=      5-min Rain = 0
KREE 070637Z 18010KT 25/15 A30 RMK A01 T02520148  RH  053%=      5-min Rain = 0
KREE 070638Z 18010KT 25/15 A30 RMK A01 T02510148  RH  053%=      5-min Rain = 0
KREE 070639Z 18010KT 25/15 A30 RMK A01 T02510148  RH  053%=      5-min Rain = 0
KREE 070640Z 18012KT 25/15 A30 RMK A01 T02510148  RH  053%=      5-min Rain = 0
KREE 070641Z 19011KT 25/15 A30 RMK A01 T02510148  RH  053%=      5-min Rain = 0
KREE 070642Z 19011KT 25/15 A3001 RMK A01 T02520148  RH  053%=      5-min Rain = 0
KREE 070643Z 19010KT 25/15 A3001 RMK A01 T02520149  RH  053%=      5-min Rain = 0
KREE 070644Z 19011KT 25/15 A3001 RMK A01 T02520149  RH  053%=      5-min Rain = 0
KREE 070645Z 19010KT 25/15 A3001 RMK A01 T02520149  RH  053%=      5-min Rain = 0
KREE 070646Z 18010KT 25/15 A3001 RMK A01 T02510149  RH  053%=      5-min Rain = 0
KREE 070647Z 19011KT 25/15 A3001 RMK A01 T02510150  RH  053%=      5-min Rain = 0
KREE 070648Z 18010KT 25/15 A3001 RMK A01 T02510150  RH  053%=      5-min Rain = 0
KREE 070649Z 18010KT 25/15 A3001 RMK A01 T02510150  RH  053%=      5-min Rain = 0
KREE 070650Z 19010KT 25/15 A3001 RMK A01 T02500150  RH  054%=      5-min Rain = 0
KREE 070651Z 18010KT 25/15 A3001 RMK A01 T02500150  RH  054%=      5-min Rain = 0
KREE 070652Z 18010KT 25/15 A3001 RMK A01 T02500150  RH  054%=      5-min Rain = 0
KREE 070653Z 18010KT 25/15 A3001 RMK A01 T02500151  RH  054%=      5-min Rain = 0
KREE 070654Z 18009KT 25/15 A3001 RMK A01 T02500150  RH  054%=      5-min Rain = 0
KREE 070655Z 18009KT 25/15 A3001 RMK A01 T02490151  RH  054%=      5-min Rain = 0
KREE 070656Z 18009KT 25/15 A3001 RMK A01 T02490151  RH  054%=      5-min Rain = 0
KREE 070657Z 18009KT 25/15 A3001 RMK A01 T02490151  RH  054%=      5-min Rain = 0
KREE 070658Z 18009KT 25/15 A3001 RMK A01 T02490151  RH  054%=      5-min Rain = 0
KREE 070659Z 18008KT 25/15 A3001 RMK A01 T02480151  RH  055%=      5-min Rain = 0
KREE 070700Z 18008KT 25/15 A3001 RMK A01 T02480151  RH  055%=      5-min Rain = 0
KREE 070701Z 18007KT 25/15 A3001 RMK A01 T02470151  RH  055%=      5-min Rain = 0
KREE 070702Z 18007KT 25/15 A3001 RMK A01 T02460151  RH  056%=      5-min Rain = 0
KREE 070703Z 19008KT 25/15 A3001 RMK A01 T02450151  RH  056%=      5-min Rain = 0
KREE 070704Z 18008KT 25/15 A3001 RMK A01 T02450152  RH  056%=      5-min Rain = 0
KREE 070705Z 18008KT 24/15 A3001 RMK A01 T02440152  RH  056%=      5-min Rain = 0
KREE 070706Z 18008KT 24/15 A3001 RMK A01 T02440152  RH  057%=      5-min Rain = 0
KREE 070707Z 18008KT 24/15 A3001 RMK A01 T02430152  RH  057%=      5-min Rain = 0
KREE 070708Z 18008KT 24/15 A3001 RMK A01 T02430152  RH  057%=      5-min Rain = 0
KREE 070709Z 18008KT 24/15 A3001 RMK A01 T02430152  RH  057%=      5-min Rain = 0
KREE 070710Z 18008KT 24/15 A3001 RMK A01 T02430153  RH  057%=      5-min Rain = 0
KREE 070711Z 18008KT 24/15 A3001 RMK A01 T02420153  RH  057%=      5-min Rain = 0
KREE 070712Z 18008KT 24/15 A3001 RMK A01 T02420153  RH  057%=      5-min Rain = 0
KREE 070713Z 17008KT 24/15 A3001 RMK A01 T02420153  RH  058%=      5-min Rain = 0
KREE 070714Z 17008KT 24/15 A3001 RMK A01 T02410154  RH  058%=      5-min Rain = 0
KREE 070715Z 17008KT 24/15 A3001 RMK A01 T02410154  RH  058%=      5-min Rain = 0
KREE 070716Z 18008KT 24/15 A3002 RMK A01 T02410154  RH  058%=      5-min Rain = 0
KREE 070717Z 18008KT 24/15 A3002 RMK A01 T02400154  RH  059%=      5-min Rain = 0
KREE 070718Z 18008KT 24/15 A3002 RMK A01 T02400154  RH  059%=      5-min Rain = 0
KREE 070719Z 18008KT 24/15 A3002 RMK A01 T02390154  RH  059%=      5-min Rain = 0
KREE 070720Z 18007KT 24/15 A3002 RMK A01 T02390154  RH  059%=      5-min Rain = 0
KREE 070721Z 18007KT 24/16 A3002 RMK A01 T02390155  RH  059%=      5-min Rain = 0
KREE 070722Z 18008KT 24/16 A3002 RMK A01 T02380155  RH  059%=      5-min Rain = 0
KREE 070723Z 18007KT 24/16 A3002 RMK A01 T02380155  RH  059%=      5-min Rain = 0
KREE 070724Z 18007KT 24/16 A3002 RMK A01 T02380155  RH  060%=      5-min Rain = 0
KREE 070725Z 19007KT 24/16 A3002 RMK A01 T02380155  RH  060%=      5-min Rain = 0
KREE 070726Z 19008KT 24/16 A3002 RMK A01 T02370155  RH  060%=      5-min Rain = 0
KREE 070727Z 18007KT 24/16 A3002 RMK A01 T02360155  RH  060%=      5-min Rain = 0
KREE 070728Z 18007KT 24/16 A3002 RMK A01 T02360155  RH  060%=      5-min Rain = 0
KREE 070729Z 18007KT 24/16 A3002 RMK A01 T02360155  RH  061%=      5-min Rain = 0
KREE 070730Z 18007KT 24/16 A3002 RMK A01 T02350155  RH  061%=      5-min Rain = 0
KREE 070731Z 18007KT 24/16 A3002 RMK A01 T02350155  RH  061%=      5-min Rain = 0
KREE 070732Z 19007KT 24/16 A3002 RMK A01 T02350155  RH  061%=      5-min Rain = 0
KREE 070733Z 19007KT 24/16 A3002 RMK A01 T02350156  RH  061%=      5-min Rain = 0
KREE 070734Z 19007KT 24/16 A3002 RMK A01 T02350156  RH  061%=      5-min Rain = 0
KREE 070735Z 18007KT 24/16 A3002 RMK A01 T02350156  RH  061%=      5-min Rain = 0
KREE 070736Z 18007KT 24/16 A3002 RMK A01 T02350156  RH  061%=      5-min Rain = 0
KREE 070737Z 18007KT 24/16 A3002 RMK A01 T02350156  RH  061%=      5-min Rain = 0
KREE 070738Z 18008KT 24/16 A3002 RMK A01 T02350156  RH  061%=      5-min Rain = 0
KREE 070739Z 18008KT 24/16 A3002 RMK A01 T02350156  RH  061%=      5-min Rain = 0
KREE 070740Z 18008KT 24/16 A3002 RMK A01 T02350156  RH  061%=      5-min Rain = 0
KREE 070741Z 18008KT 24/16 A3002 RMK A01 T02350156  RH  061%=      5-min Rain = 0
KREE 070742Z 18007KT 24/16 A3002 RMK A01 T02350156  RH  061%=      5-min Rain = 0
KREE 070743Z 19008KT 24/16 A3002 RMK A01 T02350156  RH  061%=      5-min Rain = 0
KREE 070744Z 19008KT 24/16 A3002 RMK A01 T02350156  RH  061%=      5-min Rain = 0
KREE 070745Z 19008KT 24/16 A3002 RMK A01 T02350157  RH  061%=      5-min Rain = 0
KREE 070746Z 19007KT 24/16 A3002 RMK A01 T02350157  RH  061%=      5-min Rain = 0
KREE 070747Z 19007KT 24/16 A3002 RMK A01 T02350156  RH  061%=      5-min Rain = 0
KREE 070748Z 19008KT 24/16 A3002 RMK A01 T02350157  RH  061%=      5-min Rain = 0
KREE 070749Z 19007KT 24/16 A3002 RMK A01 T02350157  RH  061%=      5-min Rain = 0
KREE 070750Z 19008KT 23/16 A3002 RMK A01 T02340157  RH  062%=      5-min Rain = 0
KREE 070751Z 19008KT 23/16 A3002 RMK A01 T02340157  RH  062%=      5-min Rain = 0
KREE 070752Z 18007KT 23/16 A3002 RMK A01 T02340157  RH  062%=      5-min Rain = 0
KREE 070753Z 18007KT 23/16 A3002 RMK A01 T02340157  RH  062%=      5-min Rain = 0
KREE 070754Z 19008KT 23/16 A3002 RMK A01 T02340157  RH  062%=      5-min Rain = 0
KREE 070755Z 19007KT 23/16 A3002 RMK A01 T02330157  RH  062%=      5-min Rain = 0
KREE 070756Z 19007KT 23/16 A3002 RMK A01 T02330157  RH  062%=      5-min Rain = 0
KREE 070757Z 18008KT 23/16 A3002 RMK A01 T02330157  RH  062%=      5-min Rain = 0
KREE 070758Z 18008KT 23/16 A3002 RMK A01 T02330157  RH  062%=      5-min Rain = 0
KREE 070759Z 18009KT 23/16 A3002 RMK A01 T02330156  RH  062%=      5-min Rain = 0
KREE 070800Z 18008KT 23/16 A3002 RMK A01 T02330156  RH  062%=      5-min Rain = 0
KREE 070801Z 18009KT 23/16 A3002 RMK A01 T02330156  RH  062%=      5-min Rain = 0
KREE 070802Z 18008KT 23/16 A3002 RMK A01 T02330156  RH  062%=      5-min Rain = 0
KREE 070803Z 18009KT 23/16 A3002 RMK A01 T02330156  RH  062%=      5-min Rain = 0
KREE 070804Z 18008KT 23/16 A3002 RMK A01 T02330156  RH  062%=      5-min Rain = 0
KREE 070805Z 18008KT 23/16 A3002 RMK A01 T02320156  RH  062%=      5-min Rain = 0
KREE 070806Z 18008KT 23/16 A3002 RMK A01 T02330156  RH  062%=      5-min Rain = 0
KREE 070807Z 18008KT 23/16 A3002 RMK A01 T02320156  RH  062%=      5-min Rain = 0
KREE 070808Z 18008KT 23/16 A3002 RMK A01 T02330156  RH  062%=      5-min Rain = 0
KREE 070809Z 18008KT 23/16 A3002 RMK A01 T02320156  RH  062%=      5-min Rain = 0
KREE 070810Z 18008KT 23/16 A3002 RMK A01 T02320156  RH  062%=      5-min Rain = 0
KREE 070811Z 18008KT 23/16 A3002 RMK A01 T02320156  RH  062%=      5-min Rain = 0
KREE 070812Z 19007KT 23/16 A3002 RMK A01 T02320156  RH  062%=      5-min Rain = 0
KREE 070813Z 18007KT 23/16 A3002 RMK A01 T02320156  RH  062%=      5-min Rain = 0
KREE 070814Z 19007KT 23/16 A3002 RMK A01 T02310156  RH  063%=      5-min Rain = 0
KREE 070815Z 18007KT 23/16 A3002 RMK A01 T02310156  RH  063%=      5-min Rain = 0
KREE 070816Z 18007KT 23/16 A3002 RMK A01 T02310156  RH  063%=      5-min Rain = 0
KREE 070817Z 18007KT 23/16 A3002 RMK A01 T02310156  RH  063%=      5-min Rain = 0
KREE 070818Z 18008KT 23/16 A3002 RMK A01 T02310156  RH  063%=      5-min Rain = 0
KREE 070819Z 18008KT 23/16 A3002 RMK A01 T02310156  RH  063%=      5-min Rain = 0
KREE 070820Z 19008KT 23/16 A3002 RMK A01 T02310156  RH  063%=      5-min Rain = 0
KREE 070821Z 19008KT 23/16 A3002 RMK A01 T02310157  RH  063%=      5-min Rain = 0
KREE 070822Z 19008KT 23/16 A3002 RMK A01 T02300157  RH  063%=      5-min Rain = 0
KREE 070823Z 19008KT 23/16 A3002 RMK A01 T02300157  RH  063%=      5-min Rain = 0
KREE 070824Z 19008KT 23/16 A3002 RMK A01 T02300157  RH  063%=      5-min Rain = 0
KREE 070825Z 19008KT 23/16 A3002 RMK A01 T02300157  RH  063%=      5-min Rain = 0
KREE 070826Z 19008KT 23/16 A3002 RMK A01 T02300157  RH  064%=      5-min Rain = 0
KREE 070827Z 19008KT 23/16 A3002 RMK A01 T02290157  RH  064%=      5-min Rain = 0
KREE 070828Z 19008KT 23/16 A3002 RMK A01 T02290158  RH  064%=      5-min Rain = 0
KREE 070829Z 19008KT 23/16 A3002 RMK A01 T02290158  RH  064%=      5-min Rain = 0
KREE 070830Z 19008KT 23/16 A3002 RMK A01 T02280158  RH  065%=      5-min Rain = 0
KREE 070831Z 19009KT 23/16 A3002 RMK A01 T02280158  RH  065%=      5-min Rain = 0
KREE 070832Z 19008KT 23/16 A3002 RMK A01 T02280159  RH  065%=      5-min Rain = 0
KREE 070833Z 19008KT 23/16 A3002 RMK A01 T02270159  RH  065%=      5-min Rain = 0
KREE 070834Z 19009KT 23/16 A3002 RMK A01 T02270159  RH  065%=      5-min Rain = 0
KREE 070835Z 19009KT 23/16 A3002 RMK A01 T02270159  RH  065%=      5-min Rain = 0
KREE 070836Z 19008KT 23/16 A3002 RMK A01 T02270159  RH  066%=      5-min Rain = 0
KREE 070837Z 19009KT 23/16 A3002 RMK A01 T02270159  RH  066%=      5-min Rain = 0
KREE 070838Z 19008KT 23/16 A3002 RMK A01 T02260159  RH  066%=      5-min Rain = 0
KREE 070839Z 19009KT 23/16 A3002 RMK A01 T02260159  RH  066%=      5-min Rain = 0
KREE 070840Z 19009KT 23/16 A3002 RMK A01 T02260159  RH  066%=      5-min Rain = 0
KREE 070841Z 19009KT 23/16 A3002 RMK A01 T02260159  RH  066%=      5-min Rain = 0
KREE 070842Z 19009KT 23/16 A3002 RMK A01 T02260159  RH  066%=      5-min Rain = 0
KREE 070843Z 19009KT 23/16 A3002 RMK A01 T02260159  RH  066%=      5-min Rain = 0
KREE 070844Z 19008KT 23/16 A3002 RMK A01 T02260159  RH  066%=      5-min Rain = 0
KREE 070845Z 19009KT 23/16 A3002 RMK A01 T02260159  RH  066%=      5-min Rain = 0
KREE 070846Z 19008KT 23/16 A3002 RMK A01 T02250159  RH  066%=      5-min Rain = 0
KREE 070847Z 19009KT 23/16 A3002 RMK A01 T02250159  RH  066%=      5-min Rain = 0
KREE 070848Z 19009KT 23/16 A3002 RMK A01 T02250159  RH  066%=      5-min Rain = 0
KREE 070849Z 19009KT 23/16 A3002 RMK A01 T02250159  RH  066%=      5-min Rain = 0
KREE 070850Z 19009KT 23/16 A3002 RMK A01 T02250159  RH  066%=      5-min Rain = 0
KREE 070851Z 19009KT 22/16 A3002 RMK A01 T02240159  RH  066%=      5-min Rain = 0
KREE 070852Z 19009KT 22/16 A3002 RMK A01 T02240159  RH  066%=      5-min Rain = 0
KREE 070853Z 19009KT 22/16 A3002 RMK A01 T02240158  RH  066%=      5-min Rain = 0
KREE 070854Z 19009KT 22/16 A3002 RMK A01 T02240159  RH  066%=      5-min Rain = 0
KREE 070855Z 19009KT 22/16 A3002 RMK A01 T02240159  RH  066%=      5-min Rain = 0
KREE 070856Z 19009KT 22/16 A3002 RMK A01 T02240159  RH  066%=      5-min Rain = 0
KREE 070857Z 19010KT 22/16 A3002 RMK A01 T02240159  RH  066%=      5-min Rain = 0
KREE 070858Z 19009KT 22/16 A3002 RMK A01 T02240158  RH  066%=      5-min Rain = 0
KREE 070859Z 19010KT 22/16 A3002 RMK A01 T02240158  RH  066%=      5-min Rain = 0
KREE 070900Z 20009KT 22/16 A3002 RMK A01 T02240158  RH  066%=      5-min Rain = 0
KREE 070901Z 20010KT 23/16 A3002 RMK A01 T02250157  RH  066%=      5-min Rain = 0
KREE 070902Z 20009KT 23/16 A3002 RMK A01 T02250157  RH  065%=      5-min Rain = 0
KREE 070903Z 20010KT 23/16 A3002 RMK A01 T02260157  RH  065%=      5-min Rain = 0
KREE 070904Z 20010KT 23/16 A3002 RMK A01 T02260156  RH  065%=      5-min Rain = 0
KREE 070905Z 20010KT 23/16 A3002 RMK A01 T02270156  RH  064%=      5-min Rain = 0
KREE 070906Z 20010KT 23/16 A3002 RMK A01 T02280156  RH  064%=      5-min Rain = 0
KREE 070907Z 20009KT 23/16 A3002 RMK A01 T02280156  RH  064%=      5-min Rain = 0
KREE 070908Z 20010KT 23/16 A3002 RMK A01 T02290155  RH  063%=      5-min Rain = 0
KREE 070909Z 20010KT 23/15 A3002 RMK A01 T02290154  RH  063%=      5-min Rain = 0
KREE 070910Z 20010KT 23/15 A3002 RMK A01 T02300154  RH  062%=      5-min Rain = 0
KREE 070911Z 20010KT 23/15 A3002 RMK A01 T02300154  RH  062%=      5-min Rain = 0
KREE 070912Z 20010KT 23/15 A3002 RMK A01 T02300154  RH  062%=      5-min Rain = 0
KREE 070913Z 20010KT 23/15 A3002 RMK A01 T02310154  RH  062%=      5-min Rain = 0
KREE 070914Z 20010KT 23/15 A3002 RMK A01 T02310154  RH  062%=      5-min Rain = 0
KREE 070915Z 20010KT 23/15 A3002 RMK A01 T02310154  RH  062%=      5-min Rain = 0
KREE 070916Z 20009KT 23/15 A3002 RMK A01 T02310154  RH  062%=      5-min Rain = 0
KREE 070917Z 20010KT 23/15 A3002 RMK A01 T02310154  RH  062%=      5-min Rain = 0
KREE 070918Z 20010KT 23/15 A3002 RMK A01 T02310154  RH  062%=      5-min Rain = 0
KREE 070919Z 20010KT 23/15 A3002 RMK A01 T02310154  RH  062%=      5-min Rain = 0
KREE 070920Z 20010KT 23/15 A3001 RMK A01 T02310154  RH  062%=      5-min Rain = 0
KREE 070921Z 20010KT 23/15 A3002 RMK A01 T02310154  RH  062%=      5-min Rain = 0
KREE 070922Z 20009KT 23/15 A3001 RMK A01 T02300154  RH  062%=      5-min Rain = 0
KREE 070923Z 20010KT 23/15 A3001 RMK A01 T02300154  RH  062%=      5-min Rain = 0
KREE 070924Z 20009KT 23/16 A3001 RMK A01 T02300155  RH  062%=      5-min Rain = 0
KREE 070925Z 20010KT 23/16 A3001 RMK A01 T02300155  RH  063%=      5-min Rain = 0
KREE 070926Z 20009KT 23/16 A3002 RMK A01 T02300155  RH  063%=      5-min Rain = 0
KREE 070927Z 20009KT 23/16 A3002 RMK A01 T02290155  RH  063%=      5-min Rain = 0
KREE 070928Z 20010KT 23/16 A3002 RMK A01 T02290156  RH  063%=      5-min Rain = 0
KREE 070929Z 20009KT 23/16 A3002 RMK A01 T02280156  RH  063%=      5-min Rain = 0
KREE 070930Z 20010KT 23/16 A3001 RMK A01 T02280156  RH  064%=      5-min Rain = 0
KREE 070931Z 20009KT 23/16 A3001 RMK A01 T02280156  RH  064%=      5-min Rain = 0
KREE 070932Z 20010KT 23/16 A3001 RMK A01 T02270156  RH  064%=      5-min Rain = 0
KREE 070933Z 20009KT 23/16 A3001 RMK A01 T02270156  RH  064%=      5-min Rain = 0
KREE 070934Z 21009KT 23/16 A3001 RMK A01 T02270156  RH  064%=      5-min Rain = 0
KREE 070935Z 21009KT 23/16 A3001 RMK A01 T02270156  RH  064%=      5-min Rain = 0
KREE 070936Z 21009KT 23/16 A3001 RMK A01 T02260156  RH  065%=      5-min Rain = 0
KREE 070937Z 21009KT 23/16 A3001 RMK A01 T02260156  RH  065%=      5-min Rain = 0
KREE 070938Z 21009KT 23/16 A3001 RMK A01 T02250156  RH  065%=      5-min Rain = 0
KREE 070939Z 21009KT 23/16 A3001 RMK A01 T02250156  RH  065%=      5-min Rain = 0
KREE 070940Z 20009KT 23/16 A3001 RMK A01 T02250156  RH  065%=      5-min Rain = 0
KREE 070941Z 21009KT 23/16 A3001 RMK A01 T02250156  RH  065%=      5-min Rain = 0
KREE 070942Z 20009KT 23/16 A3001 RMK A01 T02250156  RH  065%=      5-min Rain = 0
KREE 070943Z 20008KT 23/16 A3002 RMK A01 T02260156  RH  065%=      5-min Rain = 0
KREE 070944Z 20008KT 23/16 A3002 RMK A01 T02260156  RH  065%=      5-min Rain = 0
KREE 070945Z 20009KT 23/16 A3002 RMK A01 T02260156  RH  065%=      5-min Rain = 0
KREE 070946Z 20009KT 23/16 A3002 RMK A01 T02260156  RH  065%=      5-min Rain = 0
KREE 070947Z 20008KT 23/16 A3002 RMK A01 T02260156  RH  065%=      5-min Rain = 0
KREE 070948Z 20009KT 23/16 A3002 RMK A01 T02260156  RH  065%=      5-min Rain = 0
KREE 070949Z 20008KT 23/16 A3002 RMK A01 T02260156  RH  065%=      5-min Rain = 0
KREE 070950Z 20008KT 23/16 A3002 RMK A01 T02260156  RH  065%=      5-min Rain = 0
KREE 070951Z 19008KT 23/16 A3002 RMK A01 T02260156  RH  065%=      5-min Rain = 0
KREE 070952Z 19008KT 23/16 A3002 RMK A01 T02260156  RH  065%=      5-min Rain = 0
KREE 070953Z 19008KT 23/16 A3002 RMK A01 T02250156  RH  065%=      5-min Rain = 0
KREE 070954Z 19008KT 23/16 A3002 RMK A01 T02250156  RH  065%=      5-min Rain = 0
KREE 070955Z 19008KT 23/16 A3002 RMK A01 T02250156  RH  065%=      5-min Rain = 0
KREE 070956Z 19008KT 23/16 A3002 RMK A01 T02250157  RH  065%=      5-min Rain = 0
KREE 070957Z 19008KT 22/16 A3002 RMK A01 T02240157  RH  066%=      5-min Rain = 0
KREE 070958Z 19008KT 22/16 A3002 RMK A01 T02240157  RH  066%=      5-min Rain = 0
KREE 070959Z 19008KT 22/16 A3002 RMK A01 T02240157  RH  066%=      5-min Rain = 0
KREE 071000Z 19008KT 22/16 A3002 RMK A01 T02230157  RH  066%=      5-min Rain = 0
KREE 071001Z 19008KT 22/16 A3002 RMK A01 T02230157  RH  066%=      5-min Rain = 0
KREE 071002Z 19008KT 22/16 A3002 RMK A01 T02220157  RH  067%=      5-min Rain = 0
KREE 071003Z 19008KT 22/16 A3002 RMK A01 T02220157  RH  067%=      5-min Rain = 0
KREE 071004Z 19008KT 22/16 A3002 RMK A01 T02220157  RH  067%=      5-min Rain = 0
KREE 071005Z 19008KT 22/16 A3002 RMK A01 T02220157  RH  067%=      5-min Rain = 0
KREE 071006Z 20008KT 22/16 A3002 RMK A01 T02210158  RH  067%=      5-min Rain = 0
KREE 071007Z 20008KT 22/16 A3002 RMK A01 T02210158  RH  067%=      5-min Rain = 0
KREE 071008Z 20008KT 22/16 A3002 RMK A01 T02210158  RH  067%=      5-min Rain = 0
KREE 071009Z 20008KT 22/16 A3002 RMK A01 T02210158  RH  067%=      5-min Rain = 0
KREE 071010Z 20007KT 22/16 A3002 RMK A01 T02210158  RH  068%=      5-min Rain = 0
KREE 071011Z 20007KT 22/16 A3002 RMK A01 T02200158  RH  068%=      5-min Rain = 0
KREE 071012Z 19008KT 22/16 A3002 RMK A01 T02200158  RH  068%=      5-min Rain = 0
KREE 071013Z 19008KT 22/16 A3002 RMK A01 T02200158  RH  068%=      5-min Rain = 0
KREE 071014Z 19008KT 22/16 A3002 RMK A01 T02200158  RH  068%=      5-min Rain = 0
KREE 071015Z 19008KT 22/16 A3002 RMK A01 T02200158  RH  068%=      5-min Rain = 0
KREE 071016Z 19008KT 22/16 A3002 RMK A01 T02200158  RH  068%=      5-min Rain = 0
KREE 071017Z 19008KT 22/16 A3002 RMK A01 T02200158  RH  068%=      5-min Rain = 0
KREE 071018Z 19008KT 22/16 A3002 RMK A01 T02200158  RH  068%=      5-min Rain = 0
KREE 071019Z 19007KT 22/16 A3002 RMK A01 T02200158  RH  068%=      5-min Rain = 0
KREE 071020Z 19008KT 22/16 A3002 RMK A01 T02200158  RH  068%=      5-min Rain = 0
KREE 071021Z 19008KT 22/16 A3002 RMK A01 T02190158  RH  068%=      5-min Rain = 0
KREE 071022Z 19008KT 22/16 A3002 RMK A01 T02190158  RH  068%=      5-min Rain = 0
KREE 071023Z 19008KT 22/16 A3002 RMK A01 T02190159  RH  068%=      5-min Rain = 0
KREE 071024Z 19007KT 22/16 A3002 RMK A01 T02190159  RH  068%=      5-min Rain = 0
KREE 071025Z 19008KT 22/16 A3001 RMK A01 T02190159  RH  069%=      5-min Rain = 0
KREE 071026Z 19009KT 22/16 A3001 RMK A01 T02190158  RH  069%=      5-min Rain = 0
KREE 071027Z 19009KT 22/16 A3001 RMK A01 T02190158  RH  068%=      5-min Rain = 0
KREE 071028Z 19008KT 22/16 A3001 RMK A01 T02190158  RH  068%=      5-min Rain = 0
KREE 071029Z 19008KT 22/16 A3001 RMK A01 T02190158  RH  068%=      5-min Rain = 0
KREE 071030Z 19009KT 22/16 A3001 RMK A01 T02190158  RH  068%=      5-min Rain = 0
KREE 071031Z 19009KT 22/16 A3001 RMK A01 T02190158  RH  068%=      5-min Rain = 0
KREE 071032Z 19009KT 22/16 A3001 RMK A01 T02190158  RH  068%=      5-min Rain = 0
KREE 071033Z 19009KT 22/16 A3001 RMK A01 T02190158  RH  068%=      5-min Rain = 0
KREE 071034Z 19009KT 22/16 A3001 RMK A01 T02190159  RH  068%=      5-min Rain = 0
KREE 071035Z 19009KT 22/16 A3001 RMK A01 T02190158  RH  069%=      5-min Rain = 0
KREE 071036Z 19008KT 22/16 A3001 RMK A01 T02190159  RH  069%=      5-min Rain = 0
KREE 071037Z 19009KT 22/16 A3001 RMK A01 T02190159  RH  069%=      5-min Rain = 0
KREE 071038Z 19009KT 22/16 A3001 RMK A01 T02190159  RH  069%=      5-min Rain = 0
KREE 071039Z 19009KT 22/16 A3001 RMK A01 T02190159  RH  069%=      5-min Rain = 0
KREE 071040Z 19009KT 22/16 A3001 RMK A01 T02180159  RH  069%=      5-min Rain = 0
KREE 071041Z 19009KT 22/16 A3001 RMK A01 T02180159  RH  069%=      5-min Rain = 0
KREE 071042Z 19009KT 22/16 A3001 RMK A01 T02180159  RH  069%=      5-min Rain = 0
KREE 071043Z 19008KT 22/16 A3001 RMK A01 T02180159  RH  069%=      5-min Rain = 0
KREE 071044Z 19009KT 22/16 A3001 RMK A01 T02180159  RH  069%=      5-min Rain = 0
KREE 071045Z 19009KT 22/16 A3001 RMK A01 T02180159  RH  069%=      5-min Rain = 0
KREE 071046Z 19009KT 22/16 A3001 RMK A01 T02180159  RH  069%=      5-min Rain = 0
KREE 071047Z 19008KT 22/16 A3001 RMK A01 T02180159  RH  069%=      5-min Rain = 0
KREE 071048Z 19008KT 22/16 A3001 RMK A01 T02180159  RH  069%=      5-min Rain = 0
KREE 071049Z 18008KT 22/16 A3001 RMK A01 T02180159  RH  069%=      5-min Rain = 0
KREE 071050Z 18009KT 22/16 A3001 RMK A01 T02180160  RH  069%=      5-min Rain = 0
KREE 071051Z 18008KT 22/16 A3001 RMK A01 T02170160  RH  070%=      5-min Rain = 0
KREE 071052Z 18008KT 22/16 A3001 RMK A01 T02170160  RH  070%=      5-min Rain = 0
KREE 071053Z 18008KT 22/16 A3001 RMK A01 T02170160  RH  070%=      5-min Rain = 0
KREE 071054Z 18009KT 22/16 A3001 RMK A01 T02170160  RH  070%=      5-min Rain = 0
KREE 071055Z 18009KT 22/16 A3002 RMK A01 T02160160  RH  070%=      5-min Rain = 0
KREE 071056Z 18008KT 22/16 A3002 RMK A01 T02160161  RH  071%=      5-min Rain = 0
KREE 071057Z 19009KT 22/16 A3002 RMK A01 T02160161  RH  071%=      5-min Rain = 0
KREE 071058Z 19009KT 22/16 A3002 RMK A01 T02150161  RH  071%=      5-min Rain = 0
KREE 071059Z 19009KT 22/16 A3002 RMK A01 T02150161  RH  071%=      5-min Rain = 0
KREE 071100Z 19009KT 22/16 A3002 RMK A01 T02150161  RH  071%=      5-min Rain = 0
KREE 071101Z 19009KT 22/16 A3002 RMK A01 T02150162  RH  072%=      5-min Rain = 0
KREE 071102Z 19009KT 22/16 A3002 RMK A01 T02150162  RH  072%=      5-min Rain = 0
KREE 071103Z 19009KT 22/16 A3001 RMK A01 T02150162  RH  072%=      5-min Rain = 0
KREE 071104Z 19009KT 22/16 A3001 RMK A01 T02150162  RH  072%=      5-min Rain = 0
KREE 071105Z 19009KT 21/16 A3002 RMK A01 T02140162  RH  072%=      5-min Rain = 0
KREE 071106Z 19009KT 21/16 A3002 RMK A01 T02140162  RH  072%=      5-min Rain = 0
KREE 071107Z 19009KT 21/16 A3002 RMK A01 T02140162  RH  072%=      5-min Rain = 0
KREE 071108Z 19009KT 21/16 A3002 RMK A01 T02140162  RH  072%=      5-min Rain = 0
KREE 071109Z 19008KT 21/16 A3002 RMK A01 T02140162  RH  072%=      5-min Rain = 0
KREE 071110Z 19009KT 21/16 A3002 RMK A01 T02140162  RH  072%=      5-min Rain = 0
KREE 071111Z 19009KT 21/16 A3002 RMK A01 T02130162  RH  073%=      5-min Rain = 0
KREE 071112Z 19008KT 21/16 A3002 RMK A01 T02130162  RH  073%=      5-min Rain = 0
KREE 071113Z 19009KT 21/16 A3002 RMK A01 T02130162  RH  073%=      5-min Rain = 0
KREE 071114Z 19008KT 21/16 A3002 RMK A01 T02130162  RH  073%=      5-min Rain = 0
KREE 071115Z 19008KT 21/16 A3002 RMK A01 T02130162  RH  073%=      5-min Rain = 0
KREE 071116Z 19009KT 21/16 A3002 RMK A01 T02120162  RH  073%=      5-min Rain = 0
KREE 071117Z 19009KT 21/16 A3002 RMK A01 T02120162  RH  073%=      5-min Rain = 0
KREE 071118Z 19008KT 21/16 A3002 RMK A01 T02120162  RH  073%=      5-min Rain = 0
KREE 071119Z 19008KT 21/16 A3002 RMK A01 T02120162  RH  073%=      5-min Rain = 0
KREE 071120Z 19009KT 21/16 A3002 RMK A01 T02120162  RH  073%=      5-min Rain = 0
KREE 071121Z 19008KT 21/16 A3002 RMK A01 T02120162  RH  073%=      5-min Rain = 0
KREE 071122Z 19008KT 21/16 A3002 RMK A01 T02130162  RH  073%=      5-min Rain = 0
KREE 071123Z 19008KT 21/16 A3002 RMK A01 T02130162  RH  073%=      5-min Rain = 0
KREE 071124Z 19009KT 21/16 A3002 RMK A01 T02130162  RH  073%=      5-min Rain = 0
KREE 071125Z 19008KT 21/16 A3002 RMK A01 T02130162  RH  073%=      5-min Rain = 0
KREE 071126Z 19009KT 21/16 A3002 RMK A01 T02130162  RH  073%=      5-min Rain = 0
KREE 071127Z 19008KT 21/16 A3002 RMK A01 T02130162  RH  073%=      5-min Rain = 0
KREE 071128Z 19009KT 21/16 A3002 RMK A01 T02130162  RH  073%=      5-min Rain = 0
KREE 071129Z 19009KT 21/16 A3002 RMK A01 T02140163  RH  073%=      5-min Rain = 0
KREE 071130Z 19008KT 21/16 A3002 RMK A01 T02140163  RH  073%=      5-min Rain = 0
KREE 071131Z 19009KT 21/16 A3002 RMK A01 T02140163  RH  073%=      5-min Rain = 0
KREE 071132Z 19009KT 21/16 A3002 RMK A01 T02140163  RH  072%=      5-min Rain = 0
KREE 071133Z 19009KT 21/16 A3002 RMK A01 T02140163  RH  072%=      5-min Rain = 0
KREE 071134Z 19009KT 21/16 A3002 RMK A01 T02140163  RH  072%=      5-min Rain = 0
KREE 071135Z 20009KT 21/16 A3002 RMK A01 T02140163  RH  072%=      5-min Rain = 0
KREE 071136Z 19010KT 22/16 A3002 RMK A01 T02150163  RH  072%=      5-min Rain = 0
KREE 071137Z 19010KT 22/16 A3002 RMK A01 T02150163  RH  072%=      5-min Rain = 0
KREE 071138Z 19010KT 22/16 A3002 RMK A01 T02150163  RH  072%=      5-min Rain = 0
KREE 071139Z 19010KT 22/16 A3002 RMK A01 T02160163  RH  072%=      5-min Rain = 0
KREE 071140Z 19010KT 22/16 A3002 RMK A01 T02170163  RH  071%=      5-min Rain = 0
KREE 071141Z 19010KT 22/16 A3002 RMK A01 T02170163  RH  071%=      5-min Rain = 0
KREE 071142Z 19010KT 22/16 A3002 RMK A01 T02170164  RH  071%=      5-min Rain = 0
KREE 071143Z 19009KT 22/16 A3002 RMK A01 T02170164  RH  071%=      5-min Rain = 0
KREE 071144Z 19010KT 22/16 A3002 RMK A01 T02170164  RH  072%=      5-min Rain = 0
KREE 071145Z 19011KT 22/16 A3002 RMK A01 T02170163  RH  072%=      5-min Rain = 0
KREE 071146Z 19010KT 22/16 A3002 RMK A01 T02170164  RH  071%=      5-min Rain = 0
KREE 071147Z 19010KT 22/16 A3002 RMK A01 T02170164  RH  071%=      5-min Rain = 0
KREE 071148Z 19010KT 22/16 A3002 RMK A01 T02180164  RH  071%=      5-min Rain = 0
KREE 071149Z 19010KT 22/16 A3002 RMK A01 T02180164  RH  071%=      5-min Rain = 0
KREE 071150Z 19010KT 22/16 A3002 RMK A01 T02180164  RH  071%=      5-min Rain = 0
KREE 071151Z 19010KT 22/16 A3002 RMK A01 T02180164  RH  071%=      5-min Rain = 0
KREE 071152Z 19009KT 22/16 A3002 RMK A01 T02170164  RH  071%=      5-min Rain = 0
KREE 071153Z 19010KT 22/16 A3003 RMK A01 T02170164  RH  071%=      5-min Rain = 0
KREE 071154Z 19011KT 22/16 A3003 RMK A01 T02170164  RH  071%=      5-min Rain = 0
KREE 071155Z 19011KT 22/16 A3003 RMK A01 T02180164  RH  071%=      5-min Rain = 0
KREE 071156Z 19010KT 22/16 A3003 RMK A01 T02180164  RH  071%=      5-min Rain = 0
KREE 071157Z 19010KT 22/16 A3003 RMK A01 T02180164  RH  071%=      5-min Rain = 0
KREE 071158Z 19010KT 22/16 A3003 RMK A01 T02180164  RH  071%=      5-min Rain = 0
KREE 071159Z 19010KT 22/16 A3003 RMK A01 T02180164  RH  071%=      5-min Rain = 0
KREE 071200Z 19010KT 22/16 A3003 RMK A01 T02180164  RH  071%=      5-min Rain = 0
KREE 071201Z 19009KT 22/16 A3003 RMK A01 T02180164  RH  071%=      5-min Rain = 0
KREE 071202Z 19010KT 22/16 A3003 RMK A01 T02180164  RH  071%=      5-min Rain = 0
KREE 071203Z 19010KT 22/16 A3003 RMK A01 T02180164  RH  071%=      5-min Rain = 0
KREE 071204Z 19010KT 22/16 A3003 RMK A01 T02180164  RH  071%=      5-min Rain = 0
KREE 071205Z 20010KT 22/16 A3003 RMK A01 T02180164  RH  071%=      5-min Rain = 0
KREE 071206Z 19010KT 22/16 A3003 RMK A01 T02180164  RH  071%=      5-min Rain = 0
KREE 071207Z 20009KT 22/16 A3003 RMK A01 T02180164  RH  071%=      5-min Rain = 0
KREE 071208Z 19009KT 22/16 A3003 RMK A01 T02180164  RH  071%=      5-min Rain = 0
KREE 071209Z 20009KT 22/16 A3003 RMK A01 T02180164  RH  071%=      5-min Rain = 0
KREE 071210Z 19009KT 22/17 A3003 RMK A01 T02180165  RH  071%=      5-min Rain = 0
KREE 071211Z 20008KT 22/16 A3003 RMK A01 T02180164  RH  072%=      5-min Rain = 0
KREE 071212Z 19008KT 22/16 A3003 RMK A01 T02180164  RH  072%=      5-min Rain = 0
KREE 071213Z 20008KT 22/16 A3003 RMK A01 T02180164  RH  072%=      5-min Rain = 0
KREE 071214Z 19008KT 22/16 A3003 RMK A01 T02180164  RH  072%=      5-min Rain = 0
KREE 071215Z 20008KT 22/16 A3003 RMK A01 T02180164  RH  072%=      5-min Rain = 0
KREE 071216Z 19008KT 22/16 A3003 RMK A01 T02180164  RH  072%=      5-min Rain = 0
KREE 071217Z 19008KT 22/17 A3003 RMK A01 T02180165  RH  072%=      5-min Rain = 0
KREE 071218Z 19008KT 22/17 A3003 RMK A01 T02180165  RH  072%=      5-min Rain = 0
KREE 071219Z 19008KT 22/17 A3003 RMK A01 T02180165  RH  072%=      5-min Rain = 0
KREE 071220Z 19007KT 22/17 A3003 RMK A01 T02180165  RH  072%=      5-min Rain = 0
KREE 071221Z 19007KT 22/17 A3004 RMK A01 T02180165  RH  072%=      5-min Rain = 0
KREE 071222Z 19008KT 22/17 A3004 RMK A01 T02180165  RH  072%=      5-min Rain = 0
KREE 071223Z 19009KT 22/17 A3004 RMK A01 T02170165  RH  072%=      5-min Rain = 0
KREE 071224Z 19008KT 22/16 A3004 RMK A01 T02170164  RH  072%=      5-min Rain = 0
KREE 071225Z 19009KT 22/16 A3004 RMK A01 T02180164  RH  072%=      5-min Rain = 0
KREE 071226Z 20008KT 22/16 A3004 RMK A01 T02180164  RH  071%=      5-min Rain = 0
KREE 071227Z 20008KT 22/16 A3004 RMK A01 T02180164  RH  071%=      5-min Rain = 0
KREE 071228Z 19008KT 22/16 A3004 RMK A01 T02180164  RH  071%=      5-min Rain = 0
KREE 071229Z 19007KT 22/16 A3004 RMK A01 T02180164  RH  072%=      5-min Rain = 0
KREE 071230Z 19007KT 22/17 A3004 RMK A01 T02180165  RH  072%=      5-min Rain = 0
KREE 071231Z 19008KT 22/17 A3004 RMK A01 T02180165  RH  072%=      5-min Rain = 0
KREE 071232Z 19008KT 22/17 A3004 RMK A01 T02170165  RH  072%=      5-min Rain = 0
KREE 071233Z 19007KT 22/17 A3004 RMK A01 T02170165  RH  072%=      5-min Rain = 0
KREE 071234Z 19008KT 22/17 A3004 RMK A01 T02170165  RH  072%=      5-min Rain = 0
KREE 071235Z 19007KT 22/17 A3004 RMK A01 T02170165  RH  072%=      5-min Rain = 0
KREE 071236Z 19007KT 22/17 A3004 RMK A01 T02170165  RH  072%=      5-min Rain = 0
KREE 071237Z 19007KT 22/17 A3004 RMK A01 T02170165  RH  072%=      5-min Rain = 0
KREE 071238Z 19007KT 22/17 A3004 RMK A01 T02170165  RH  072%=      5-min Rain = 0
KREE 071239Z 19007KT 22/17 A3004 RMK A01 T02170165  RH  072%=      5-min Rain = 0
KREE 071240Z 19007KT 22/17 A3004 RMK A01 T02170165  RH  073%=      5-min Rain = 0
KREE 071241Z 19007KT 22/17 A3004 RMK A01 T02160165  RH  073%=      5-min Rain = 0
KREE 071242Z 19007KT 22/17 A3004 RMK A01 T02160165  RH  073%=      5-min Rain = 0
KREE 071243Z 19007KT 22/17 A3004 RMK A01 T02170165  RH  072%=      5-min Rain = 0
KREE 071244Z 19007KT 22/17 A3004 RMK A01 T02160165  RH  072%=      5-min Rain = 0
KREE 071245Z 19007KT 22/17 A3004 RMK A01 T02170165  RH  072%=      5-min Rain = 0
KREE 071246Z 19008KT 22/17 A3004 RMK A01 T02170166  RH  073%=      5-min Rain = 0
KREE 071247Z 19007KT 22/17 A3004 RMK A01 T02170166  RH  073%=      5-min Rain = 0
KREE 071248Z 19007KT 22/17 A3004 RMK A01 T02170166  RH  073%=      5-min Rain = 0
KREE 071249Z 19007KT 22/17 A3004 RMK A01 T02170166  RH  073%=      5-min Rain = 0
KREE 071250Z 19007KT 22/17 A3004 RMK A01 T02170165  RH  072%=      5-min Rain = 0
KREE 071251Z 19007KT 22/17 A3004 RMK A01 T02170165  RH  072%=      5-min Rain = 0
KREE 071252Z 19007KT 22/17 A3004 RMK A01 T02170165  RH  072%=      5-min Rain = 0
KREE 071253Z 19007KT 22/17 A3004 RMK A01 T02170165  RH  072%=      5-min Rain = 0
KREE 071254Z 19008KT 22/17 A3004 RMK A01 T02170165  RH  072%=      5-min Rain = 0
KREE 071255Z 19008KT 22/17 A3004 RMK A01 T02170165  RH  072%=      5-min Rain = 0
KREE 071256Z 19008KT 22/17 A3004 RMK A01 T02180165  RH  072%=      5-min Rain = 0
KREE 071257Z 19008KT 22/17 A3004 RMK A01 T02190166  RH  072%=      5-min Rain = 0
KREE 071258Z 19009KT 22/17 A3004 RMK A01 T02190166  RH  072%=      5-min Rain = 0
KREE 071259Z 19008KT 22/17 A3004 RMK A01 T02200165  RH  071%=      5-min Rain = 0
KREE 071300Z 19008KT 22/17 A3004 RMK A01 T02200166  RH  071%=      5-min Rain = 0
KREE 071301Z 19009KT 22/17 A3004 RMK A01 T02210166  RH  071%=      5-min Rain = 0
KREE 071302Z 20009KT 22/17 A3004 RMK A01 T02210166  RH  071%=      5-min Rain = 0
KREE 071303Z 19008KT 22/17 A3004 RMK A01 T02210166  RH  071%=      5-min Rain = 0
KREE 071304Z 19008KT 22/17 A3004 RMK A01 T02210166  RH  071%=      5-min Rain = 0
KREE 071305Z 20009KT 22/17 A3004 RMK A01 T02220166  RH  071%=      5-min Rain = 0
KREE 071306Z 20008KT 22/17 A3004 RMK A01 T02220166  RH  070%=      5-min Rain = 0
KREE 071307Z 20008KT 22/17 A3004 RMK A01 T02230167  RH  070%=      5-min Rain = 0
KREE 071308Z 19009KT 22/17 A3004 RMK A01 T02240166  RH  070%=      5-min Rain = 0
KREE 071309Z 20008KT 22/17 A3004 RMK A01 T02240167  RH  070%=      5-min Rain = 0
KREE 071310Z 20007KT 23/17 A3004 RMK A01 T02250167  RH  070%=      5-min Rain = 0
KREE 071311Z 19008KT 23/17 A3004 RMK A01 T02260166  RH  069%=      5-min Rain = 0
KREE 071312Z 20009KT 23/17 A3004 RMK A01 T02270167  RH  069%=      5-min Rain = 0
KREE 071313Z 20008KT 23/17 A3004 RMK A01 T02290167  RH  068%=      5-min Rain = 0
KREE 071314Z 20009KT 23/17 A3004 RMK A01 T02300167  RH  068%=      5-min Rain = 0
KREE 071315Z 20010KT 23/17 A3004 RMK A01 T02310167  RH  067%=      5-min Rain = 0
KREE 071316Z 20010KT 23/17 A3004 RMK A01 T02320167  RH  067%=      5-min Rain = 0
KREE 071317Z 20009KT 23/17 A3004 RMK A01 T02320167  RH  067%=      5-min Rain = 0
KREE 071318Z 19010KT 23/17 A3005 RMK A01 T02320167  RH  067%=      5-min Rain = 0
KREE 071319Z 20011KT 23/17 A3004 RMK A01 T02320166  RH  066%=      5-min Rain = 0
KREE 071320Z 19010KT 23/17 A3004 RMK A01 T02330166  RH  066%=      5-min Rain = 0
KREE 071321Z 19009KT 23/17 A3005 RMK A01 T02340167  RH  066%=      5-min Rain = 0
KREE 071322Z 20010KT 24/17 A3005 RMK A01 T02350167  RH  065%=      5-min Rain = 0
KREE 071323Z 20010KT 24/17 A3005 RMK A01 T02360166  RH  065%=      5-min Rain = 0
KREE 071324Z 19010KT 24/17 A3005 RMK A01 T02370167  RH  065%=      5-min Rain = 0
KREE 071325Z 19010KT 24/17 A3005 RMK A01 T02370167  RH  065%=      5-min Rain = 0
KREE 071326Z 19009KT 24/17 A3005 RMK A01 T02370167  RH  065%=      5-min Rain = 0
KREE 071327Z 19011KT 24/17 A3005 RMK A01 T02380167  RH  064%=      5-min Rain = 0
KREE 071328Z 19010KT 24/17 A3005 RMK A01 T02390167  RH  064%=      5-min Rain = 0
KREE 071329Z 19011KT 24/17 A3005 RMK A01 T02390167  RH  064%=      5-min Rain = 0
KREE 071330Z 19009KT 24/17 A3005 RMK A01 T02390168  RH  064%=      5-min Rain = 0
KREE 071331Z 18011KT 24/17 A3005 RMK A01 T02400167  RH  064%=      5-min Rain = 0
KREE 071332Z 19013KT 24/17 A3005 RMK A01 T02400166  RH  063%=      5-min Rain = 0
KREE 071333Z 19012KT 24/17 A3005 RMK A01 T02400166  RH  063%=      5-min Rain = 0
KREE 071334Z 19012KT 24/17 A3005 RMK A01 T02400167  RH  064%=      5-min Rain = 0
KREE 071335Z 19011KT 24/17 A3005 RMK A01 T02410166  RH  063%=      5-min Rain = 0
KREE 071336Z 19010KT 24/17 A3005 RMK A01 T02410168  RH  064%=      5-min Rain = 0
KREE 071337Z 18010KT 24/17 A3005 RMK A01 T02420168  RH  064%=      5-min Rain = 0
KREE 071338Z 18012KT 24/17 A3005 RMK A01 T02420168  RH  063%=      5-min Rain = 0
KREE 071339Z 18011KT 24/17 A3005 RMK A01 T02420168  RH  063%=      5-min Rain = 0
KREE 071340Z 18011KT 24/17 A3005 RMK A01 T02420169  RH  064%=      5-min Rain = 0
KREE 071341Z 18011KT 24/17 A3005 RMK A01 T02420168  RH  063%=      5-min Rain = 0
KREE 071342Z 18012KT 24/17 A3005 RMK A01 T02420167  RH  063%=      5-min Rain = 0
KREE 071343Z 18013KT 24/17 A3005 RMK A01 T02430166  RH  062%=      5-min Rain = 0
KREE 071344Z 18013KT 24/17 A3005 RMK A01 T02430167  RH  063%=      5-min Rain = 0
KREE 071345Z 18012KT 24/17 A3005 RMK A01 T02430167  RH  063%=      5-min Rain = 0
KREE 071346Z 18013KT 24/17 A3005 RMK A01 T02440167  RH  062%=      5-min Rain = 0
KREE 071347Z 19013G18KT 25/17 A3005 RMK A01 T02450167  RH  062%=      5-min Rain = 0
KREE 071348Z 18014KT 25/17 A3005 RMK A01 T02460167  RH  061%=      5-min Rain = 0
KREE 071349Z 18013KT 25/17 A3005 RMK A01 T02460167  RH  061%=      5-min Rain = 0
KREE 071350Z 19014G19KT 25/17 A3005 RMK A01 T02470167  RH  061%=      5-min Rain = 0
KREE 071351Z 18015KT 25/17 A3005 RMK A01 T02470166  RH  061%=      5-min Rain = 0
KREE 071352Z 18014KT 25/17 A3005 RMK A01 T02470167  RH  061%=      5-min Rain = 0
KREE 071353Z 18014KT 25/17 A3005 RMK A01 T02470167  RH  061%=      5-min Rain = 0
KREE 071354Z 19015KT 25/17 A3005 RMK A01 T02480167  RH  061%=      5-min Rain = 0
KREE 071355Z 19015KT 25/17 A3005 RMK A01 T02480167  RH  061%=      5-min Rain = 0
KREE 071356Z 19012KT 25/17 A3005 RMK A01 T02480168  RH  061%=      5-min Rain = 0
KREE 071357Z 19012G17KT 25/17 A3005 RMK A01 T02480168  RH  061%=      5-min Rain = 0
KREE 071358Z 19013KT 25/17 A3005 RMK A01 T02500168  RH  060%=      5-min Rain = 0
KREE 071359Z 19016KT 25/17 A3005 RMK A01 T02520167  RH  059%=      5-min Rain = 0
KREE 071400Z 19014KT 25/17 A3006 RMK A01 T02520168  RH  059%=      5-min Rain = 0
KREE 071401Z 19015KT 25/17 A3006 RMK A01 T02530167  RH  059%=      5-min Rain = 0
KREE 071402Z 19015KT 25/17 A3006 RMK A01 T02540168  RH  059%=      5-min Rain = 0
KREE 071403Z 19015KT 26/17 A3006 RMK A01 T02550168  RH  059%=      5-min Rain = 0
KREE 071404Z 19014G19KT 25/17 A3006 RMK A01 T02540168  RH  059%=      5-min Rain = 0
KREE 071405Z 20015G20KT 26/17 A3006 RMK A01 T02550169  RH  059%=      5-min Rain = 0
KREE 071406Z 19015KT 26/17 A3006 RMK A01 T02570168  RH  058%=      5-min Rain = 0
KREE 071407Z 19015KT 26/17 A3006 RMK A01 T02580168  RH  057%=      5-min Rain = 0
KREE 071408Z 19014KT 26/17 A3006 RMK A01 T02590167  RH  057%=      5-min Rain = 0
KREE 071409Z 19015KT 26/17 A3006 RMK A01 T02590167  RH  057%=      5-min Rain = 0
KREE 071410Z 18016KT 26/17 A3006 RMK A01 T02590168  RH  057%=      5-min Rain = 0
KREE 071411Z 18015KT 26/17 A3006 RMK A01 T02590166  RH  056%=      5-min Rain = 0
KREE 071412Z 19013KT 26/17 A3006 RMK A01 T02600168  RH  057%=      5-min Rain = 0
KREE 071413Z 19016KT 26/17 A3006 RMK A01 T02620168  RH  056%=      5-min Rain = 0
KREE 071414Z 18017KT 26/17 A3006 RMK A01 T02610167  RH  056%=      5-min Rain = 0
KREE 071415Z 18017G22KT 26/17 A3006 RMK A01 T02600165  RH  056%=      5-min Rain = 0
KREE 071416Z 18014KT 26/17 A3006 RMK A01 T02590166  RH  056%=      5-min Rain = 0
KREE 071417Z 19016KT 26/17 A3006 RMK A01 T02600166  RH  056%=      5-min Rain = 0
KREE 071418Z 19014KT 26/17 A3006 RMK A01 T02600167  RH  056%=      5-min Rain = 0
KREE 071419Z 19016KT 26/17 A3006 RMK A01 T02610167  RH  056%=      5-min Rain = 0
KREE 071420Z 18016G21KT 26/17 A3006 RMK A01 T02630165  RH  055%=      5-min Rain = 0
KREE 071421Z 19018KT 26/16 A3006 RMK A01 T02640164  RH  054%=      5-min Rain = 0
KREE 071422Z 19015KT 26/17 A3006 RMK A01 T02640165  RH  054%=      5-min Rain = 0
KREE 071423Z 18015KT 27/17 A3006 RMK A01 T02650165  RH  054%=      5-min Rain = 0
KREE 071424Z 18015KT 27/17 A3006 RMK A01 T02660165  RH  054%=      5-min Rain = 0
KREE 071425Z 18015KT 27/17 A3006 RMK A01 T02660166  RH  054%=      5-min Rain = 0
KREE 071426Z 18019KT 27/16 A3006 RMK A01 T02660164  RH  054%=      5-min Rain = 0
KREE 071427Z 18016G21KT 27/16 A3006 RMK A01 T02650164  RH  054%=      5-min Rain = 0
KREE 071428Z 18017KT 27/16 A3006 RMK A01 T02650164  RH  054%=      5-min Rain = 0
KREE 071429Z 19016KT 27/16 A3006 RMK A01 T02650164  RH  054%=      5-min Rain = 0
KREE 071430Z 18017KT 27/16 A3006 RMK A01 T02650164  RH  054%=      5-min Rain = 0
KREE 071431Z 19016G21KT 27/16 A3006 RMK A01 T02650162  RH  053%=      5-min Rain = 0
KREE 071432Z 18017KT 27/16 A3006 RMK A01 T02660164  RH  053%=      5-min Rain = 0
KREE 071433Z 19018KT 27/16 A3006 RMK A01 T02690163  RH  052%=      5-min Rain = 0
KREE 071434Z 19018G23KT 27/16 A3006 RMK A01 T02680164  RH  053%=      5-min Rain = 0
KREE 071435Z 18017G22KT 27/16 A3006 RMK A01 T02670164  RH  053%=      5-min Rain = 0
KREE 071436Z 18017G22KT 27/16 A3006 RMK A01 T02660164  RH  053%=      5-min Rain = 0
KREE 071437Z 18019KT 27/16 A3006 RMK A01 T02660163  RH  053%=      5-min Rain = 0
KREE 071438Z 18017KT 27/16 A3006 RMK A01 T02670163  RH  053%=      5-min Rain = 0
KREE 071439Z 19016G21KT 27/16 A3006 RMK A01 T02680164  RH  053%=      5-min Rain = 0
KREE 071440Z 19017KT 27/16 A3006 RMK A01 T02690164  RH  053%=      5-min Rain = 0
KREE 071441Z 19015KT 27/16 A3006 RMK A01 T02680164  RH  053%=      5-min Rain = 0
KREE 071442Z 19016KT 27/16 A3006 RMK A01 T02690163  RH  052%=      5-min Rain = 0
KREE 071443Z 19016G21KT 27/16 A3006 RMK A01 T02690164  RH  053%=      5-min Rain = 0
KREE 071444Z 19018KT 27/16 A3006 RMK A01 T02690163  RH  052%=      5-min Rain = 0
KREE 071445Z 19019KT 27/16 A3006 RMK A01 T02680162  RH  052%=      5-min Rain = 0
KREE 071446Z 19018KT 27/16 A3006 RMK A01 T02680162  RH  052%=      5-min Rain = 0
KREE 071447Z 19016KT 27/16 A3006 RMK A01 T02680162  RH  052%=      5-min Rain = 0
KREE 071448Z 19019KT 27/16 A3006 RMK A01 T02690162  RH  052%=      5-min Rain = 0
KREE 071449Z 19017G22KT 27/16 A3006 RMK A01 T02700162  RH  052%=      5-min Rain = 0
KREE 071450Z 19017G22KT 27/16 A3006 RMK A01 T02700163  RH  052%=      5-min Rain = 0
KREE 071451Z 19019KT 27/16 A3006 RMK A01 T02710161  RH  051%=      5-min Rain = 0
KREE 071452Z 19020KT 27/16 A3006 RMK A01 T02700161  RH  051%=      5-min Rain = 0
KREE 071453Z 19018KT 27/16 A3006 RMK A01 T02680161  RH  052%=      5-min Rain = 0
KREE 071454Z 19019KT 27/16 A3006 RMK A01 T02680161  RH  052%=      5-min Rain = 0
KREE 071455Z 18019KT 27/16 A3006 RMK A01 T02680161  RH  052%=      5-min Rain = 0
KREE 071456Z 19019KT 27/16 A3006 RMK A01 T02680161  RH  052%=      5-min Rain = 0
KREE 071457Z 19019KT 27/16 A3006 RMK A01 T02680162  RH  052%=      5-min Rain = 0
KREE 071458Z 19017KT 27/16 A3006 RMK A01 T02680162  RH  052%=      5-min Rain = 0
KREE 071459Z 19018KT 27/16 A3006 RMK A01 T02670162  RH  052%=      5-min Rain = 0
KREE 071500Z 19016KT 27/16 A3006 RMK A01 T02680162  RH  052%=      5-min Rain = 0
KREE 071501Z 19016KT 27/16 A3006 RMK A01 T02680162  RH  052%=      5-min Rain = 0
KREE 071502Z 18017KT 27/16 A3006 RMK A01 T02680162  RH  052%=      5-min Rain = 0
KREE 071503Z 18019KT 27/16 A3006 RMK A01 T02710162  RH  051%=      5-min Rain = 0
KREE 071504Z 19018KT 27/16 A3006 RMK A01 T02720161  RH  051%=      5-min Rain = 0
KREE 071505Z 18017KT 27/16 A3006 RMK A01 T02710162  RH  051%=      5-min Rain = 0
KREE 071506Z 18017KT 27/16 A3006 RMK A01 T02710161  RH  051%=      5-min Rain = 0
KREE 071507Z 19018KT 27/16 A3006 RMK A01 T02720163  RH  051%=      5-min Rain = 0
KREE 071508Z 19018KT 27/16 A3006 RMK A01 T02730163  RH  051%=      5-min Rain = 0
KREE 071509Z 18017KT 27/16 A3006 RMK A01 T02720163  RH  051%=      5-min Rain = 0
KREE 071510Z 18017KT 27/16 A3006 RMK A01 T02720163  RH  051%=      5-min Rain = 0
KREE 071511Z 20016KT 27/16 A3006 RMK A01 T02740163  RH  051%=      5-min Rain = 0
KREE 071512Z 20019KT 28/16 A3006 RMK A01 T02770161  RH  049%=      5-min Rain = 0
KREE 071513Z 20019G24KT 28/16 A3006 RMK A01 T02770161  RH  049%=      5-min Rain = 0
KREE 071514Z 20018KT 28/16 A3006 RMK A01 T02760160  RH  049%=      5-min Rain = 0
KREE 071515Z 20017KT 27/16 A3006 RMK A01 T02740162  RH  050%=      5-min Rain = 0
KREE 071516Z 19017KT 28/16 A3007 RMK A01 T02760163  RH  050%=      5-min Rain = 0
KREE 071517Z 20015G20KT 28/16 A3007 RMK A01 T02770162  RH  050%=      5-min Rain = 0
KREE 071518Z 19017KT 28/16 A3007 RMK A01 T02780163  RH  049%=      5-min Rain = 0
KREE 071519Z 18017KT 28/16 A3007 RMK A01 T02800163  RH  049%=      5-min Rain = 0
KREE 071520Z 18017KT 28/16 A3007 RMK A01 T02800163  RH  049%=      5-min Rain = 0
KREE 071521Z 19017G22KT 28/16 A3007 RMK A01 T02780163  RH  050%=      5-min Rain = 0
KREE 071522Z 19014KT 28/16 A3007 RMK A01 T02780163  RH  050%=      5-min Rain = 0
KREE 071523Z 19018KT 28/16 A3007 RMK A01 T02770163  RH  050%=      5-min Rain = 0
KREE 071524Z 19015KT 28/16 A3007 RMK A01 T02760163  RH  050%=      5-min Rain = 0
KREE 071525Z 19018G23KT 28/16 A3007 RMK A01 T02760163  RH  050%=      5-min Rain = 0
KREE 071526Z 18019G24KT 28/16 A3007 RMK A01 T02770162  RH  050%=      5-min Rain = 0
KREE 071527Z 18018KT 28/16 A3007 RMK A01 T02750161  RH  050%=      5-min Rain = 0
KREE 071528Z 19018G23KT 28/16 A3007 RMK A01 T02750161  RH  050%=      5-min Rain = 0
KREE 071529Z 19018G24KT 28/16 A3007 RMK A01 T02760161  RH  049%=      5-min Rain = 0
KREE 071530Z 19017G22KT 28/16 A3007 RMK A01 T02790162  RH  049%=      5-min Rain = 0
KREE 071531Z 18019KT 28/16 A3007 RMK A01 T02790161  RH  049%=      5-min Rain = 0
KREE 071532Z 19017KT 28/16 A3007 RMK A01 T02790162  RH  049%=      5-min Rain = 0
KREE 071533Z 19019KT 28/16 A3007 RMK A01 T02800161  RH  048%=      5-min Rain = 0
KREE 071534Z 20016KT 28/16 A3007 RMK A01 T02800163  RH  049%=      5-min Rain = 0
KREE 071535Z 20016KT 28/16 A3007 RMK A01 T02800162  RH  049%=      5-min Rain = 0
KREE 071536Z 21019G24KT 28/16 A3007 RMK A01 T02810162  RH  048%=      5-min Rain = 0
KREE 071537Z 20018G24KT 28/16 A3007 RMK A01 T02820161  RH  048%=      5-min Rain = 0
KREE 071538Z 20020KT 28/16 A3007 RMK A01 T02820161  RH  048%=      5-min Rain = 0
KREE 071539Z 20019KT 28/16 A3007 RMK A01 T02800160  RH  048%=      5-min Rain = 0
KREE 071540Z 19019KT 28/16 A3007 RMK A01 T02780161  RH  049%=      5-min Rain = 0
KREE 071541Z 19017KT 28/16 A3007 RMK A01 T02790162  RH  049%=      5-min Rain = 0
KREE 071542Z 19018KT 28/16 A3007 RMK A01 T02810163  RH  049%=      5-min Rain = 0
KREE 071543Z 19015KT 28/17 A3007 RMK A01 T02830165  RH  049%=      5-min Rain = 0
KREE 071544Z 19016KT 29/17 A3007 RMK A01 T02850165  RH  048%=      5-min Rain = 0
KREE 071545Z 18017KT 29/17 A3007 RMK A01 T02850166  RH  049%=      5-min Rain = 0
KREE 071546Z 19017G22KT 28/17 A3007 RMK A01 T02840166  RH  049%=      5-min Rain = 0
KREE 071547Z 20018G23KT 28/16 A3007 RMK A01 T02840164  RH  048%=      5-min Rain = 0
KREE 071548Z 19016KT 28/16 A3007 RMK A01 T02840161  RH  047%=      5-min Rain = 0
KREE 071549Z 19019KT 28/16 A3007 RMK A01 T02830163  RH  048%=      5-min Rain = 0
KREE 071550Z 20019KT 28/16 A3007 RMK A01 T02840162  RH  048%=      5-min Rain = 0
KREE 071551Z 20018G24KT 28/16 A3007 RMK A01 T02840161  RH  047%=      5-min Rain = 0
KREE 071552Z 19019KT 28/16 A3007 RMK A01 T02840161  RH  047%=      5-min Rain = 0
KREE 071553Z 19018G24KT 28/16 A3007 RMK A01 T02840162  RH  047%=      5-min Rain = 0
KREE 071554Z 20017G22KT 29/16 A3007 RMK A01 T02860162  RH  047%=      5-min Rain = 0
KREE 071555Z 20019KT 29/16 A3007 RMK A01 T02880162  RH  046%=      5-min Rain = 0
KREE 071556Z 21019KT 29/16 A3007 RMK A01 T02880163  RH  047%=      5-min Rain = 0
KREE 071557Z 20018KT 29/16 A3007 RMK A01 T02880164  RH  047%=      5-min Rain = 0
KREE 071558Z 19017KT 29/17 A3007 RMK A01 T02880165  RH  047%=      5-min Rain = 0
KREE 071559Z 18019G26KT 29/16 A3007 RMK A01 T02880163  RH  047%=      5-min Rain = 0
KREE 071600Z 18019KT 29/16 A3007 RMK A01 T02880162  RH  046%=      5-min Rain = 0
KREE 071601Z 19017KT 29/16 A3007 RMK A01 T02880163  RH  047%=      5-min Rain = 0
KREE 071602Z 19016KT 29/16 A3007 RMK A01 T02910160  RH  045%=      5-min Rain = 0
KREE 071603Z 19016G23KT 29/16 A3007 RMK A01 T02920163  RH  046%=      5-min Rain = 0
KREE 071604Z 19018G24KT 29/16 A3007 RMK A01 T02920162  RH  045%=      5-min Rain = 0
KREE 071605Z 19019G25KT 29/16 A3007 RMK A01 T02900164  RH  046%=      5-min Rain = 0
KREE 071606Z 19018KT 29/16 A3007 RMK A01 T02890163  RH  046%=      5-min Rain = 0
KREE 071607Z 19017KT 29/16 A3007 RMK A01 T02880163  RH  047%=      5-min Rain = 0
KREE 071608Z 21018G24KT 29/16 A3007 RMK A01 T02890161  RH  046%=      5-min Rain = 0
KREE 071609Z 20019G25KT 29/16 A3007 RMK A01 T02930159  RH  044%=      5-min Rain = 0
KREE 071610Z 20018KT 29/16 A3007 RMK A01 T02930160  RH  044%=      5-min Rain = 0
KREE 071611Z 21019KT 29/16 A3007 RMK A01 T02930161  RH  045%=      5-min Rain = 0
KREE 071612Z 20016G21KT 29/16 A3007 RMK A01 T02930161  RH  045%=      5-min Rain = 0
KREE 071613Z 20016G21KT 30/16 A3007 RMK A01 T02950161  RH  044%=      5-min Rain = 0
KREE 071614Z 21018KT 30/16 A3007 RMK A01 T02960159  RH  044%=      5-min Rain = 0
KREE 071615Z 20017KT 29/16 A3007 RMK A01 T02940159  RH  044%=      5-min Rain = 0
KREE 071616Z 19016KT 29/16 A3007 RMK A01 T02930161  RH  045%=      5-min Rain = 0
KREE 071617Z 20018KT 30/16 A3007 RMK A01 T02950160  RH  044%=      5-min Rain = 0
KREE 071618Z 20019KT 30/16 A3007 RMK A01 T02960159  RH  043%=      5-min Rain = 0
KREE 071619Z 21019KT 29/16 A3007 RMK A01 T02940160  RH  044%=      5-min Rain = 0
KREE 071620Z 20018KT 29/16 A3007 RMK A01 T02940160  RH  044%=      5-min Rain = 0
KREE 071621Z 19018G23KT 29/16 A3007 RMK A01 T02940159  RH  044%=      5-min Rain = 0
KREE 071622Z 19017KT 30/16 A3007 RMK A01 T02960158  RH  043%=      5-min Rain = 0
KREE 071623Z 20019KT 30/16 A3007 RMK A01 T02970159  RH  043%=      5-min Rain = 0
KREE 071624Z 20020KT 30/16 A3007 RMK A01 T02980157  RH  043%=      5-min Rain = 0
KREE 071625Z 19017KT 30/16 A3007 RMK A01 T02980158  RH  043%=      5-min Rain = 0
KREE 071626Z 19015KT 30/16 A3007 RMK A01 T02970161  RH  044%=      5-min Rain = 0
KREE 071627Z 19018KT 30/16 A3007 RMK A01 T03020161  RH  043%=      5-min Rain = 0
KREE 071628Z 19018KT 30/16 A3007 RMK A01 T03020158  RH  042%=      5-min Rain = 0
KREE 071629Z 20016G21KT 30/16 A3007 RMK A01 T02980161  RH  044%=      5-min Rain = 0
KREE 071630Z 21017G22KT 30/16 A3007 RMK A01 T03010161  RH  043%=      5-min Rain = 0
KREE 071631Z 21016KT 30/16 A3007 RMK A01 T03030161  RH  042%=      5-min Rain = 0
KREE 071632Z 20016KT 30/16 A3007 RMK A01 T03020162  RH  043%=      5-min Rain = 0
KREE 071633Z 20014KT 30/16 A3007 RMK A01 T03010163  RH  043%=      5-min Rain = 0
KREE 071634Z 20016G21KT 30/16 A3007 RMK A01 T03020162  RH  043%=      5-min Rain = 0
KREE 071635Z 21019G24KT 30/16 A3007 RMK A01 T03020160  RH  042%=      5-min Rain = 0
KREE 071636Z 20017G22KT 30/16 A3007 RMK A01 T03010161  RH  043%=      5-min Rain = 0
KREE 071637Z 19014KT 30/16 A3007 RMK A01 T02990160  RH  043%=      5-min Rain = 0
KREE 071638Z 19013G18KT 30/16 A3007 RMK A01 T03000160  RH  043%=      5-min Rain = 0
KREE 071639Z 20018KT 30/16 A3007 RMK A01 T03020160  RH  042%=      5-min Rain = 0
KREE 071640Z 20016KT 30/16 A3007 RMK A01 T03030159  RH  042%=      5-min Rain = 0
KREE 071641Z 20014G21KT 30/16 A3007 RMK A01 T03010159  RH  042%=      5-min Rain = 0
KREE 071642Z 20016G21KT 30/16 A3007 RMK A01 T03020159  RH  042%=      5-min Rain = 0
KREE 071643Z 19015KT 31/16 A3007 RMK A01 T03060159  RH  041%=      5-min Rain = 0
KREE 071644Z 20016KT 31/16 A3007 RMK A01 T03080157  RH  040%=      5-min Rain = 0
KREE 071645Z 21014KT 31/16 A3007 RMK A01 T03050157  RH  041%=      5-min Rain = 0
KREE 071646Z 20015KT 31/16 A3007 RMK A01 T03050159  RH  041%=      5-min Rain = 0
KREE 071647Z 20018KT 31/16 A3007 RMK A01 T03070156  RH  040%=      5-min Rain = 0
KREE 071648Z 20016KT 31/16 A3007 RMK A01 T03050157  RH  041%=      5-min Rain = 0
KREE 071649Z 19015KT 31/16 A3007 RMK A01 T03050159  RH  041%=      5-min Rain = 0
KREE 071650Z 18016KT 31/16 A3007 RMK A01 T03060159  RH  041%=      5-min Rain = 0
KREE 071651Z 19016G22KT 31/16 A3007 RMK A01 T03080161  RH  041%=      5-min Rain = 0
KREE 071652Z 19016KT 31/16 A3008 RMK A01 T03100162  RH  041%=      5-min Rain = 0
KREE 071653Z 19017G23KT 31/16 A3007 RMK A01 T03110161  RH  041%=      5-min Rain = 0
KREE 071654Z 19014G20KT 31/16 A3008 RMK A01 T03100159  RH  040%=      5-min Rain = 0
KREE 071655Z 20015KT 31/16 A3008 RMK A01 T03100158  RH  040%=      5-min Rain = 0
KREE 071656Z 19013KT 31/16 A3008 RMK A01 T03080158  RH  040%=      5-min Rain = 0
KREE 071657Z 19013KT 31/16 A3008 RMK A01 T03080158  RH  040%=      5-min Rain = 0
KREE 071658Z 18015KT 31/16 A3007 RMK A01 T03090159  RH  040%=      5-min Rain = 0
KREE 071659Z 19016KT 31/16 A3007 RMK A01 T03100159  RH  040%=      5-min Rain = 0
KREE 071700Z 19015KT 31/16 A3007 RMK A01 T03110160  RH  040%=      5-min Rain = 0
KREE 071701Z 18014KT 31/16 A3007 RMK A01 T03110160  RH  040%=      5-min Rain = 0
KREE 071702Z 20014KT 31/16 A3007 RMK A01 T03090162  RH  041%=      5-min Rain = 0
KREE 071703Z 22015KT 31/16 A3007 RMK A01 T03130162  RH  040%=      5-min Rain = 0
KREE 071704Z 22016KT 32/16 A3007 RMK A01 T03160161  RH  039%=      5-min Rain = 0
KREE 071705Z 20017KT 32/16 A3007 RMK A01 T03170161  RH  039%=      5-min Rain = 0
KREE 071706Z 20018KT 32/16 A3007 RMK A01 T03150159  RH  039%=      5-min Rain = 0
KREE 071707Z 20017KT 32/16 A3007 RMK A01 T03150160  RH  039%=      5-min Rain = 0
KREE 071708Z 21015KT 31/16 A3007 RMK A01 T03120160  RH  040%=      5-min Rain = 0
KREE 071709Z 22017G23KT 31/16 A3007 RMK A01 T03100162  RH  041%=      5-min Rain = 0
KREE 071710Z 21011KT 31/16 A3007 RMK A01 T03120161  RH  040%=      5-min Rain = 0
KREE 071711Z 21013G19KT 31/16 A3007 RMK A01 T03110161  RH  040%=      5-min Rain = 0
KREE 071712Z 20016G23KT 31/16 A3007 RMK A01 T03120161  RH  040%=      5-min Rain = 0
KREE 071713Z 20018KT 32/16 A3007 RMK A01 T03170159  RH  039%=      5-min Rain = 0
KREE 071714Z 20016KT 32/16 A3007 RMK A01 T03170161  RH  039%=      5-min Rain = 0
KREE 071715Z 19014KT 32/16 A3007 RMK A01 T03170161  RH  039%=      5-min Rain = 0
KREE 071716Z 20014G22KT 32/16 A3007 RMK A01 T03160162  RH  040%=      5-min Rain = 0
KREE 071717Z 20018KT 32/16 A3007 RMK A01 T03200159  RH  038%=      5-min Rain = 0
KREE 071718Z 20015KT 32/16 A3007 RMK A01 T03210159  RH  038%=      5-min Rain = 0
KREE 071719Z 19017KT 32/16 A3007 RMK A01 T03180159  RH  038%=      5-min Rain = 0
KREE 071720Z 19017KT 32/16 A3007 RMK A01 T03170159  RH  039%=      5-min Rain = 0
KREE 071721Z 19015KT 32/16 A3007 RMK A01 T03160162  RH  040%=      5-min Rain = 0
KREE 071722Z 20017KT 32/16 A3007 RMK A01 T03170162  RH  039%=      5-min Rain = 0
KREE 071723Z 21016KT 32/16 A3007 RMK A01 T03180160  RH  039%=      5-min Rain = 0
KREE 071724Z 21014KT 32/16 A3007 RMK A01 T03160161  RH  039%=      5-min Rain = 0
KREE 071725Z 20014KT 32/16 A3007 RMK A01 T03180159  RH  038%=      5-min Rain = 0
KREE 071726Z 20017KT 32/16 A3007 RMK A01 T03170161  RH  039%=      5-min Rain = 0
KREE 071727Z 21016KT 32/16 A3007 RMK A01 T03180160  RH  038%=      5-min Rain = 0
KREE 071728Z 20014KT 32/16 A3007 RMK A01 T03180160  RH  039%=      5-min Rain = 0
KREE 071729Z 20013KT 32/16 A3007 RMK A01 T03160162  RH  039%=      5-min Rain = 0
KREE 071730Z 20015G20KT 32/16 A3007 RMK A01 T03190162  RH  039%=      5-min Rain = 0
KREE 071731Z 20017KT 32/16 A3007 RMK A01 T03200162  RH  039%=      5-min Rain = 0
KREE 071732Z 21015G21KT 32/16 A3007 RMK A01 T03170162  RH  039%=      5-min Rain = 0
KREE 071733Z 21015KT 32/16 A3007 RMK A01 T03160164  RH  040%=      5-min Rain = 0
KREE 071734Z 21016KT 32/16 A3007 RMK A01 T03170163  RH  040%=      5-min Rain = 0
KREE 071735Z 21016KT 32/16 A3007 RMK A01 T03170163  RH  039%=      5-min Rain = 0
KREE 071736Z 21016G22KT 32/16 A3007 RMK A01 T03180161  RH  039%=      5-min Rain = 0
KREE 071737Z 21017G22KT 32/16 A3007 RMK A01 T03180162  RH  039%=      5-min Rain = 0
KREE 071738Z 21015KT 32/16 A3007 RMK A01 T03180162  RH  039%=      5-min Rain = 0
KREE 071739Z 22016KT 32/16 A3007 RMK A01 T03180161  RH  039%=      5-min Rain = 0
KREE 071740Z 21015G20KT 32/16 A3007 RMK A01 T03210162  RH  038%=      5-min Rain = 0
KREE 071741Z 19017KT 33/16 A3007 RMK A01 T03250164  RH  038%=      5-min Rain = 0
KREE 071742Z 18016KT 33/16 A3007 RMK A01 T03270162  RH  037%=      5-min Rain = 0
KREE 071743Z 18015G20KT 32/16 A3007 RMK A01 T03240163  RH  038%=      5-min Rain = 0
KREE 071744Z 20014KT 32/16 A3007 RMK A01 T03230164  RH  038%=      5-min Rain = 0
KREE 071745Z 19012G19KT 33/17 A3007 RMK A01 T03260165  RH  038%=      5-min Rain = 0
KREE 071746Z 18016KT 33/16 A3006 RMK A01 T03280164  RH  037%=      5-min Rain = 0
KREE 071747Z 18016G21KT 33/16 A3006 RMK A01 T03260163  RH  038%=      5-min Rain = 0
KREE 071748Z 18012G17KT 32/16 A3006 RMK A01 T03240162  RH  038%=      5-min Rain = 0
KREE 071749Z 21011KT 32/16 A3006 RMK A01 T03210163  RH  039%=      5-min Rain = 0
KREE 071750Z 21016G21KT 32/16 A3006 RMK A01 T03220163  RH  038%=      5-min Rain = 0
KREE 071751Z 21018G23KT 33/16 A3006 RMK A01 T03250163  RH  038%=      5-min Rain = 0
KREE 071752Z 20015KT 32/16 A3006 RMK A01 T03230164  RH  038%=      5-min Rain = 0
KREE 071753Z 18014KT 33/16 A3006 RMK A01 T03250164  RH  038%=      5-min Rain = 0
KREE 071754Z 20017KT 33/16 A3006 RMK A01 T03250164  RH  038%=      5-min Rain = 0
KREE 071755Z 21017G22KT 33/16 A3006 RMK A01 T03250163  RH  038%=      5-min Rain = 0
KREE 071756Z 20020KT 33/16 A3006 RMK A01 T03280162  RH  037%=      5-min Rain = 0
KREE 071757Z 21019G24KT 33/16 A3006 RMK A01 T03260161  RH  037%=      5-min Rain = 0
KREE 071758Z 20016G22KT 33/16 A3006 RMK A01 T03270158  RH  036%=      5-min Rain = 0
KREE 071759Z 21015G20KT 33/16 A3006 RMK A01 T03260157  RH  036%=      5-min Rain = 0
KREE 071800Z 21017KT 33/16 A3006 RMK A01 T03250157  RH  036%=      5-min Rain = 0
KREE 071801Z 20014KT 33/16 A3006 RMK A01 T03260158  RH  036%=      5-min Rain = 0
KREE 071802Z 20017G22KT 33/16 A3006 RMK A01 T03260159  RH  037%=      5-min Rain = 0
KREE 071803Z 20016KT 33/16 A3006 RMK A01 T03260160  RH  037%=      5-min Rain = 0
KREE 071804Z 21015KT 33/16 A3006 RMK A01 T03250161  RH  037%=      5-min Rain = 0
KREE 071805Z 19015KT 33/16 A3006 RMK A01 T03280162  RH  037%=      5-min Rain = 0
KREE 071806Z 20016G21KT 33/16 A3006 RMK A01 T03300161  RH  037%=      5-min Rain = 0
KREE 071807Z 19018KT 33/16 A3006 RMK A01 T03320161  RH  036%=      5-min Rain = 0
KREE 071808Z 19018KT 33/16 A3006 RMK A01 T03320161  RH  036%=      5-min Rain = 0
KREE 071809Z 18014G19KT 33/16 A3006 RMK A01 T03300161  RH  036%=      5-min Rain = 0
KREE 071810Z 20019KT 33/16 A3005 RMK A01 T03280159  RH  036%=      5-min Rain = 0
KREE 071811Z 20019KT 33/16 A3006 RMK A01 T03290160  RH  036%=      5-min Rain = 0
KREE 071812Z 19015KT 33/16 A3006 RMK A01 T03290160  RH  036%=      5-min Rain = 0
KREE 071813Z 19014KT 33/16 A3006 RMK A01 T03290157  RH  036%=      5-min Rain = 0
KREE 071814Z 19017KT 33/16 A3005 RMK A01 T03290156  RH  036%=      5-min Rain = 0
KREE 071815Z 18016G21KT 33/16 A3005 RMK A01 T03300155  RH  035%=      5-min Rain = 0
KREE 071816Z 18016KT 33/16 A3005 RMK A01 T03330155  RH  034%=      5-min Rain = 0
KREE 071817Z 18017KT 34/16 A3005 RMK A01 T03360155  RH  034%=      5-min Rain = 0
KREE 071818Z 19014KT 33/15 A3006 RMK A01 T03340154  RH  034%=      5-min Rain = 0
KREE 071819Z 19015G21KT 33/16 A3005 RMK A01 T03310157  RH  035%=      5-min Rain = 0
KREE 071820Z 19017G22KT 33/16 A3005 RMK A01 T03290159  RH  036%=      5-min Rain = 0
KREE 071821Z 19016KT 33/16 A3005 RMK A01 T03280161  RH  037%=      5-min Rain = 0
KREE 071822Z 18015KT 33/16 A3005 RMK A01 T03280161  RH  037%=      5-min Rain = 0
KREE 071823Z 18011KT 33/16 A3005 RMK A01 T03280161  RH  037%=      5-min Rain = 0
KREE 071824Z 18012G18KT 33/16 A3005 RMK A01 T03260160  RH  037%=      5-min Rain = 0
KREE 071825Z 20015G20KT 33/16 A3005 RMK A01 T03260159  RH  037%=      5-min Rain = 0
KREE 071826Z 19015G22KT 33/16 A3005 RMK A01 T03300159  RH  036%=      5-min Rain = 0
KREE 071827Z 18013G18KT 33/16 A3005 RMK A01 T03330159  RH  035%=      5-min Rain = 0
KREE 071828Z 21017G23KT 33/16 A3005 RMK A01 T03330160  RH  036%=      5-min Rain = 0
KREE 071829Z 19013KT 33/16 A3005 RMK A01 T03320159  RH  035%=      5-min Rain = 0
KREE 071830Z 18012KT 34/16 A3005 RMK A01 T03350159  RH  035%=      5-min Rain = 0
KREE 071831Z 19015G20KT 34/16 A3005 RMK A01 T03360159  RH  035%=      5-min Rain = 0
KREE 071832Z 21017KT 34/16 A3005 RMK A01 T03370155  RH  033%=      5-min Rain = 0
KREE 071833Z 21017KT 34/16 A3005 RMK A01 T03380156  RH  034%=      5-min Rain = 0
KREE 071834Z 22016KT 34/16 A3005 RMK A01 T03420155  RH  033%=      5-min Rain = 0
KREE 071835Z 21016KT 34/15 A3005 RMK A01 T03400154  RH  033%=      5-min Rain = 0
KREE 071836Z 22016KT 34/15 A3005 RMK A01 T03380153  RH  033%=      5-min Rain = 0
KREE 071837Z 20017KT 34/15 A3005 RMK A01 T03390151  RH  033%=      5-min Rain = 0
KREE 071838Z 19015KT 34/15 A3005 RMK A01 T03410152  RH  032%=      5-min Rain = 0
KREE 071839Z 18010KT 34/15 A3005 RMK A01 T03410154  RH  033%=      5-min Rain = 0
KREE 071840Z 18015G20KT 34/16 A3005 RMK A01 T03410156  RH  033%=      5-min Rain = 0
KREE 071841Z 19015KT 34/16 A3005 RMK A01 T03410155  RH  033%=      5-min Rain = 0
KREE 071842Z 20014KT 34/15 A3005 RMK A01 T03380154  RH  033%=      5-min Rain = 0
KREE 071843Z 18012G18KT 34/16 A3005 RMK A01 T03380157  RH  034%=      5-min Rain = 0
KREE 071844Z 18016KT 34/15 A3005 RMK A01 T03420153  RH  032%=      5-min Rain = 0
KREE 071845Z 19014G19KT 34/15 A3005 RMK A01 T03440145  RH  030%=      5-min Rain = 0
KREE 071846Z 19016KT 35/15 A3005 RMK A01 T03460147  RH  030%=      5-min Rain = 0
KREE 071847Z 19012KT 34/15 A3005 RMK A01 T03410146  RH  031%=      5-min Rain = 0
KREE 071848Z 18013KT 34/15 A3005 RMK A01 T03380148  RH  032%=      5-min Rain = 0
KREE 071849Z 17013G19KT 34/15 A3005 RMK A01 T03380149  RH  032%=      5-min Rain = 0
KREE 071850Z 19016G21KT 34/15 A3005 RMK A01 T03410154  RH  033%=      5-min Rain = 0
KREE 071851Z 18011KT 35/15 A3005 RMK A01 T03450153  RH  032%=      5-min Rain = 0
KREE 071852Z 19013KT 35/15 A3005 RMK A01 T03460154  RH  032%=      5-min Rain = 0
KREE 071853Z 20013G18KT 35/15 A3005 RMK A01 T03460153  RH  031%=      5-min Rain = 0
KREE 071854Z 21015KT 35/14 A3005 RMK A01 T03460143  RH  030%=      5-min Rain = 0
KREE 071855Z 19018G23KT 35/15 A3005 RMK A01 T03470147  RH  030%=      5-min Rain = 0
KREE 071856Z 19017KT 35/15 A3005 RMK A01 T03460147  RH  030%=      5-min Rain = 0
KREE 071857Z 20014KT 34/15 A3005 RMK A01 T03440147  RH  031%=      5-min Rain = 0
KREE 071858Z 19016KT 35/15 A3005 RMK A01 T03450149  RH  031%=      5-min Rain = 0
KREE 071859Z 19013KT 34/15 A3005 RMK A01 T03420150  RH  032%=      5-min Rain = 0
KREE 071900Z 18011G19KT 34/15 A3005 RMK A01 T03410151  RH  032%=      5-min Rain = 0
KREE 071901Z 19018KT 35/15 A3005 RMK A01 T03460150  RH  031%=      5-min Rain = 0
KREE 071902Z 19019KT 35/15 A3005 RMK A01 T03460149  RH  031%=      5-min Rain = 0
KREE 071903Z 19016KT 35/15 A3005 RMK A01 T03450152  RH  032%=      5-min Rain = 0
KREE 071904Z 19015KT 35/15 A3005 RMK A01 T03470149  RH  031%=      5-min Rain = 0
KREE 071905Z 19015KT 35/14 A3005 RMK A01 T03480144  RH  030%=      5-min Rain = 0
KREE 071906Z 17013KT 35/14 A3005 RMK A01 T03490144  RH  029%=      5-min Rain = 0
KREE 071907Z 17012KT 35/15 A3005 RMK A01 T03490146  RH  030%=      5-min Rain = 0
KREE 071908Z 17013KT 35/15 A3005 RMK A01 T03490148  RH  030%=      5-min Rain = 0
KREE 071909Z 17013G18KT 35/15 A3004 RMK A01 T03460150  RH  031%=      5-min Rain = 0
KREE 071910Z 16014KT 35/15 A3004 RMK A01 T03470149  RH  031%=      5-min Rain = 0
KREE 071911Z 16013KT 35/15 A3004 RMK A01 T03470150  RH  031%=      5-min Rain = 0
KREE 071912Z 17012KT 34/15 A3004 RMK A01 T03440152  RH  032%=      5-min Rain = 0
KREE 071913Z 16012KT 35/15 A3004 RMK A01 T03450153  RH  032%=      5-min Rain = 0
KREE 071914Z 17013KT 35/16 A3004 RMK A01 T03470156  RH  032%=      5-min Rain = 0
KREE 071915Z 18018G23KT 35/14 A3004 RMK A01 T03540144  RH  029%=      5-min Rain = 0
KREE 071916Z 19017G22KT 36/14 A3004 RMK A01 T03550142  RH  028%=      5-min Rain = 0
KREE 071917Z 19017KT 35/14 A3004 RMK A01 T03540139  RH  028%=      5-min Rain = 0
KREE 071918Z 18014KT 35/14 A3004 RMK A01 T03500139  RH  028%=      5-min Rain = 0
KREE 071919Z 19013G18KT 35/14 A3004 RMK A01 T03480140  RH  029%=      5-min Rain = 0
KREE 071920Z 18016KT 35/14 A3004 RMK A01 T03500141  RH  029%=      5-min Rain = 0
KREE 071921Z 17015KT 35/14 A3004 RMK A01 T03500142  RH  029%=      5-min Rain = 0
KREE 071922Z 18014G21KT 35/14 A3004 RMK A01 T03520141  RH  028%=      5-min Rain = 0
KREE 071923Z 17018KT 35/15 A3004 RMK A01 T03510146  RH  029%=      5-min Rain = 0
KREE 071924Z 19018KT 35/15 A3004 RMK A01 T03540146  RH  029%=      5-min Rain = 0
KREE 071925Z 18016KT 36/15 A3004 RMK A01 T03550146  RH  029%=      5-min Rain = 0
KREE 071926Z 18016KT 35/14 A3004 RMK A01 T03540144  RH  029%=      5-min Rain = 0
KREE 071927Z 20012KT 35/14 A3004 RMK A01 T03510143  RH  029%=      5-min Rain = 0
KREE 071928Z 17015G21KT 35/15 A3004 RMK A01 T03500146  RH  030%=      5-min Rain = 0
KREE 071929Z 17012KT 35/15 A3004 RMK A01 T03530146  RH  029%=      5-min Rain = 0
KREE 071930Z 18017KT 36/15 A3004 RMK A01 T03560145  RH  028%=      5-min Rain = 0
KREE 071931Z 18015KT 36/14 A3004 RMK A01 T03550141  RH  028%=      5-min Rain = 0
KREE 071932Z 16016KT 36/14 A3004 RMK A01 T03550139  RH  028%=      5-min Rain = 0
KREE 071933Z 17012KT 35/14 A3004 RMK A01 T03520138  RH  028%=      5-min Rain = 0
KREE 071934Z 17013KT 35/14 A3004 RMK A01 T03520141  RH  028%=      5-min Rain = 0
KREE 071935Z 18014KT 35/14 A3003 RMK A01 T03500143  RH  029%=      5-min Rain = 0
KREE 071936Z 20013KT 35/14 A3004 RMK A01 T03520142  RH  029%=      5-min Rain = 0
KREE 071937Z 18019KT 36/14 A3003 RMK A01 T03560143  RH  028%=      5-min Rain = 0
KREE 071938Z 19015KT 36/15 A3004 RMK A01 T03570145  RH  028%=      5-min Rain = 0
KREE 071939Z 18015KT 36/15 A3003 RMK A01 T03600146  RH  028%=      5-min Rain = 0
KREE 071940Z 19012KT 36/14 A3003 RMK A01 T03590144  RH  028%=      5-min Rain = 0
KREE 071941Z 21014KT 36/15 A3003 RMK A01 T03570145  RH  028%=      5-min Rain = 0
KREE 071942Z 21014KT 36/15 A3003 RMK A01 T03560150  RH  029%=      5-min Rain = 0
KREE 071943Z 19017G23KT 36/15 A3003 RMK A01 T03550152  RH  030%=      5-min Rain = 0
KREE 071944Z 19016KT 36/15 A3003 RMK A01 T03550150  RH  030%=      5-min Rain = 0
KREE 071945Z 20012KT 35/15 A3003 RMK A01 T03520151  RH  030%=      5-min Rain = 0
KREE 071946Z 19009KT 35/15 A3003 RMK A01 T03480149  RH  030%=      5-min Rain = 0
KREE 071947Z 18014G23KT 35/15 A3003 RMK A01 T03510149  RH  030%=      5-min Rain = 0
KREE 071948Z 18018KT 36/15 A3003 RMK A01 T03570145  RH  028%=      5-min Rain = 0
KREE 071949Z 18018KT 36/15 A3003 RMK A01 T03570145  RH  028%=      5-min Rain = 0
KREE 071950Z 18018G23KT 36/14 A3003 RMK A01 T03560143  RH  028%=      5-min Rain = 0
KREE 071951Z 18014KT 36/15 A3003 RMK A01 T03560147  RH  029%=      5-min Rain = 0
KREE 071952Z 19010KT 36/15 A3003 RMK A01 T03560147  RH  029%=      5-min Rain = 0
KREE 071953Z 17013KT 35/15 A3003 RMK A01 T03530145  RH  029%=      5-min Rain = 0
KREE 071954Z 17019KT 36/15 A3003 RMK A01 T03560147  RH  029%=      5-min Rain = 0
KREE 071955Z 18013G22KT 36/15 A3003 RMK A01 T03560149  RH  029%=      5-min Rain = 0
KREE 071956Z 19018G23KT 36/15 A3003 RMK A01 T03570151  RH  029%=      5-min Rain = 0
KREE 071957Z 19016G21KT 36/15 A3003 RMK A01 T03580152  RH  029%=      5-min Rain = 0
KREE 071958Z 20011KT 36/15 A3003 RMK A01 T03550151  RH  030%=      5-min Rain = 0
KREE 071959Z 18012KT 35/15 A3003 RMK A01 T03520151  RH  030%=      5-min Rain = 0
KREE 072000Z 17019KT 35/15 A3003 RMK A01 T03520151  RH  030%=      5-min Rain = 0
KREE 072001Z 17016KT 35/15 A3003 RMK A01 T03530148  RH  029%=      5-min Rain = 0
KREE 072002Z 17015KT 36/15 A3003 RMK A01 T03550147  RH  029%=      5-min Rain = 0
KREE 072003Z 17014KT 36/15 A3003 RMK A01 T03590147  RH  028%=      5-min Rain = 0
KREE 072004Z 17012KT 36/15 A3003 RMK A01 T03610147  RH  028%=      5-min Rain = 0
KREE 072005Z 20012G17KT 36/16 A3003 RMK A01 T03630156  RH  029%=      5-min Rain = 0
KREE 072006Z 19012KT 36/16 A3003 RMK A01 T03600158  RH  030%=      5-min Rain = 0
KREE 072007Z 19020G25KT 36/15 A3003 RMK A01 T03610154  RH  029%=      5-min Rain = 0
KREE 072008Z 19019KT 36/15 A3003 RMK A01 T03610149  RH  028%=      5-min Rain = 0
KREE 072009Z 18016KT 36/15 A3003 RMK A01 T03590149  RH  029%=      5-min Rain = 0
KREE 072010Z 17011KT 36/15 A3003 RMK A01 T03580150  RH  029%=      5-min Rain = 0
KREE 072011Z 19009KT 36/16 A3003 RMK A01 T03560156  RH  030%=      5-min Rain = 0
KREE 072012Z 19015KT 36/16 A3003 RMK A01 T03560155  RH  030%=      5-min Rain = 0
KREE 072013Z 20016G25KT 36/15 A3003 RMK A01 T03580154  RH  030%=      5-min Rain = 0
KREE 072014Z 21012KT 36/16 A3003 RMK A01 T03590155  RH  030%=      5-min Rain = 0
KREE 072015Z 22017G22KT 36/15 A3003 RMK A01 T03570146  RH  028%=      5-min Rain = 0
KREE 072016Z 21015KT 36/14 A3003 RMK A01 T03600140  RH  027%=      5-min Rain = 0
KREE 072017Z 20014G20KT 36/14 A3003 RMK A01 T03620139  RH  026%=      5-min Rain = 0
KREE 072018Z 21016G25KT 36/14 A3003 RMK A01 T03610137  RH  026%=      5-min Rain = 0
KREE 072019Z 19018KT 36/14 A3003 RMK A01 T03590137  RH  027%=      5-min Rain = 0
KREE 072020Z 18013KT 36/14 A3003 RMK A01 T03600136  RH  026%=      5-min Rain = 0
KREE 072021Z 18012G17KT 36/13 A3003 RMK A01 T03570134  RH  026%=      5-min Rain = 0
KREE 072022Z 20014KT 36/13 A3003 RMK A01 T03570132  RH  026%=      5-min Rain = 0
KREE 072023Z 20013KT 36/13 A3003 RMK A01 T03580133  RH  026%=      5-min Rain = 0
KREE 072024Z 18013KT 36/14 A3003 RMK A01 T03600139  RH  027%=      5-min Rain = 0
KREE 072025Z 20013KT 36/14 A3003 RMK A01 T03620143  RH  027%=      5-min Rain = 0
KREE 072026Z 20013KT 36/15 A3003 RMK A01 T03640145  RH  027%=      5-min Rain = 0
KREE 072027Z 19018KT 37/15 A3003 RMK A01 T03660149  RH  027%=      5-min Rain = 0
KREE 072028Z 19017KT 36/15 A3003 RMK A01 T03630146  RH  027%=      5-min Rain = 0
KREE 072029Z 18014KT 36/14 A3003 RMK A01 T03620142  RH  027%=      5-min Rain = 0
KREE 072030Z 20014G19KT 36/15 A3003 RMK A01 T03610149  RH  028%=      5-min Rain = 0
KREE 072031Z 19014KT 36/15 A3003 RMK A01 T03610148  RH  028%=      5-min Rain = 0
KREE 072032Z 19011G16KT 36/15 A3002 RMK A01 T03560148  RH  029%=      5-min Rain = 0
KREE 072033Z 18013KT 36/15 A3002 RMK A01 T03550145  RH  029%=      5-min Rain = 0
KREE 072034Z 19013G20KT 36/15 A3002 RMK A01 T03600148  RH  028%=      5-min Rain = 0
KREE 072035Z 16016KT 36/14 A3002 RMK A01 T03640141  RH  026%=      5-min Rain = 0
KREE 072036Z 17014KT 36/14 A3002 RMK A01 T03630139  RH  026%=      5-min Rain = 0
KREE 072037Z 18014G22KT 36/14 A3002 RMK A01 T03620139  RH  026%=      5-min Rain = 0
KREE 072038Z 20018KT 36/13 A3002 RMK A01 T03640131  RH  025%=      5-min Rain = 0
KREE 072039Z 21016KT 37/13 A3002 RMK A01 T03660129  RH  024%=      5-min Rain = 0
KREE 072040Z 20015KT 37/13 A3002 RMK A01 T03650128  RH  024%=      5-min Rain = 0
KREE 072041Z 20015KT 37/13 A3002 RMK A01 T03660126  RH  024%=      5-min Rain = 0
KREE 072042Z 20013KT 36/13 A3002 RMK A01 T03630125  RH  024%=      5-min Rain = 0
KREE 072043Z 21014KT 36/13 A3002 RMK A01 T03620125  RH  024%=      5-min Rain = 0
KREE 072044Z 20014KT 36/13 A3002 RMK A01 T03610128  RH  025%=      5-min Rain = 0
KREE 072045Z 19014G21KT 36/14 A3002 RMK A01 T03630138  RH  026%=      5-min Rain = 0
KREE 072046Z 18018KT 36/14 A3002 RMK A01 T03610139  RH  027%=      5-min Rain = 0
KREE 072047Z 19015G22KT 36/14 A3002 RMK A01 T03610138  RH  026%=      5-min Rain = 0
KREE 072048Z 18013KT 36/14 A3002 RMK A01 T03620135  RH  026%=      5-min Rain = 0
KREE 072049Z 19015G21KT 36/14 A3002 RMK A01 T03630135  RH  026%=      5-min Rain = 0
KREE 072050Z 20017KT 37/14 A3002 RMK A01 T03660135  RH  025%=      5-min Rain = 0
KREE 072051Z 20018KT 37/13 A3002 RMK A01 T03650129  RH  024%=      5-min Rain = 0
KREE 072052Z 20016G22KT 36/13 A3002 RMK A01 T03630126  RH  024%=      5-min Rain = 0
KREE 072053Z 20015KT 36/12 A3002 RMK A01 T03630122  RH  024%=      5-min Rain = 0
KREE 072054Z 20015G21KT 36/12 A3002 RMK A01 T03630118  RH  023%=      5-min Rain = 0
KREE 072055Z 19017KT 36/12 A3002 RMK A01 T03610119  RH  023%=      5-min Rain = 0
KREE 072056Z 19013KT 36/11 A3002 RMK A01 T03620114  RH  022%=      5-min Rain = 0
KREE 072057Z 18013KT 36/11 A3002 RMK A01 T03630111  RH  022%=      5-min Rain = 0
KREE 072058Z 19014KT 37/12 A3002 RMK A01 T03650116  RH  022%=      5-min Rain = 0
KREE 072059Z 19013G18KT 37/12 A3002 RMK A01 T03650120  RH  023%=      5-min Rain = 0
KREE 072100Z 19013G18KT 37/13 A3002 RMK A01 T03650125  RH  024%=      5-min Rain = 0
KREE 072101Z 20017G22KT 37/13 A3002 RMK A01 T03650128  RH  024%=      5-min Rain = 0
KREE 072102Z 19018KT 37/13 A3002 RMK A01 T03670127  RH  024%=      5-min Rain = 0
KREE 072103Z 19012KT 37/13 A3002 RMK A01 T03660127  RH  024%=      5-min Rain = 0
KREE 072104Z 19012KT 36/13 A3002 RMK A01 T03640127  RH  024%=      5-min Rain = 0
KREE 072105Z 17013KT 36/13 A3002 RMK A01 T03610125  RH  024%=      5-min Rain = 0
KREE 072106Z 18013G18KT 36/12 A3002 RMK A01 T03620121  RH  023%=      5-min Rain = 0
KREE 072107Z 20010KT 37/12 A3002 RMK A01 T03660120  RH  023%=      5-min Rain = 0
KREE 072108Z 22012KT 37/12 A3002 RMK A01 T03660118  RH  023%=      5-min Rain = 0
KREE 072109Z 19014KT 37/12 A3002 RMK A01 T03660122  RH  023%=      5-min Rain = 0
KREE 072110Z 19012KT 37/12 A3002 RMK A01 T03680123  RH  023%=      5-min Rain = 0
KREE 072111Z 22017KT 37/12 A3001 RMK A01 T03670122  RH  023%=      5-min Rain = 0
KREE 072112Z 20016G21KT 37/13 A3002 RMK A01 T03650125  RH  024%=      5-min Rain = 0
KREE 072113Z 20015KT 37/12 A3002 RMK A01 T03670124  RH  023%=      5-min Rain = 0
KREE 072114Z 20014KT 37/12 A3002 RMK A01 T03670120  RH  023%=      5-min Rain = 0
KREE 072115Z 20010KT 37/12 A3002 RMK A01 T03660121  RH  023%=      5-min Rain = 0
KREE 072116Z 21011G16KT 36/12 A3002 RMK A01 T03630122  RH  024%=      5-min Rain = 0
KREE 072117Z 20013KT 36/13 A3002 RMK A01 T03610125  RH  024%=      5-min Rain = 0
KREE 072118Z 19013KT 36/13 A3002 RMK A01 T03630126  RH  024%=      5-min Rain = 0
KREE 072119Z 17013KT 37/13 A3002 RMK A01 T03660125  RH  024%=      5-min Rain = 0
KREE 072120Z 18010KT 37/12 A3002 RMK A01 T03650124  RH  023%=      5-min Rain = 0
KREE 072121Z 17012KT 36/12 A3002 RMK A01 T03620124  RH  024%=      5-min Rain = 0
KREE 072122Z 16009KT 36/12 A3001 RMK A01 T03610123  RH  024%=      5-min Rain = 0
KREE 072123Z 18007KT 36/12 A3001 RMK A01 T03580124  RH  024%=      5-min Rain = 0
KREE 072124Z 19010KT 36/13 A3001 RMK A01 T03590125  RH  024%=      5-min Rain = 0
KREE 072125Z 20014KT 36/13 A3001 RMK A01 T03640133  RH  025%=      5-min Rain = 0
KREE 072126Z 19011KT 37/13 A3001 RMK A01 T03650133  RH  025%=      5-min Rain = 0
KREE 072127Z 18011KT 36/13 A3001 RMK A01 T03640132  RH  025%=      5-min Rain = 0
KREE 072128Z 18011KT 36/13 A3001 RMK A01 T03640132  RH  025%=      5-min Rain = 0
KREE 072129Z 19009G15KT 37/13 A3001 RMK A01 T03650132  RH  025%=      5-min Rain = 0
KREE 072130Z 22013KT 37/13 A3001 RMK A01 T03670129  RH  024%=      5-min Rain = 0
KREE 072131Z 23010KT 37/13 A3001 RMK A01 T03680128  RH  024%=      5-min Rain = 0
KREE 072132Z 22009KT 37/13 A3001 RMK A01 T03660127  RH  024%=      5-min Rain = 0
KREE 072133Z 19011KT 37/13 A3001 RMK A01 T03650128  RH  024%=      5-min Rain = 0
KREE 072134Z 19013KT 37/12 A3001 RMK A01 T03670124  RH  023%=      5-min Rain = 0
KREE 072135Z 20011KT 37/12 A3001 RMK A01 T03690120  RH  022%=      5-min Rain = 0
KREE 072136Z 21015KT 37/12 A3001 RMK A01 T03690122  RH  023%=      5-min Rain = 0
KREE 072137Z 21015G22KT 37/12 A3001 RMK A01 T03700123  RH  023%=      5-min Rain = 0
KREE 072138Z 20015KT 37/12 A3001 RMK A01 T03690120  RH  022%=      5-min Rain = 0
KREE 072139Z 20013KT 37/12 A3001 RMK A01 T03670121  RH  023%=      5-min Rain = 0
KREE 072140Z 20012KT 37/12 A3001 RMK A01 T03670121  RH  023%=      5-min Rain = 0
KREE 072141Z 20011KT 37/12 A3001 RMK A01 T03680121  RH  023%=      5-min Rain = 0
KREE 072142Z 22011KT 37/12 A3001 RMK A01 T03700116  RH  022%=      5-min Rain = 0
KREE 072143Z 22010KT 37/12 A3001 RMK A01 T03680116  RH  022%=      5-min Rain = 0
KREE 072144Z 21009KT 37/12 A3001 RMK A01 T03660118  RH  022%=      5-min Rain = 0
KREE 072145Z 19010KT 37/12 A3001 RMK A01 T03650120  RH  023%=      5-min Rain = 0
KREE 072146Z 18008KT 37/12 A30 RMK A01 T03650123  RH  023%=      5-min Rain = 0
KREE 072147Z 19011G17KT 36/13 A30 RMK A01 T03640125  RH  024%=      5-min Rain = 0
KREE 072148Z 18012KT 37/13 A30 RMK A01 T03670127  RH  024%=      5-min Rain = 0
KREE 072149Z 17013KT 37/13 A30 RMK A01 T03700129  RH  024%=      5-min Rain = 0
KREE 072150Z 17014KT 37/13 A30 RMK A01 T03730128  RH  023%=      5-min Rain = 0
KREE 072151Z 17011G17KT 37/13 A30 RMK A01 T03730126  RH  023%=      5-min Rain = 0
KREE 072152Z 16010KT 37/13 A30 RMK A01 T03690127  RH  023%=      5-min Rain = 0
KREE 072153Z 17011KT 37/13 A30 RMK A01 T03670127  RH  024%=      5-min Rain = 0
KREE 072154Z 19012KT 37/13 A30 RMK A01 T03660131  RH  025%=      5-min Rain = 0
KREE 072155Z 17011KT 37/13 A30 RMK A01 T03680132  RH  024%=      5-min Rain = 0
KREE 072156Z 18012KT 37/13 A30 RMK A01 T03670132  RH  025%=      5-min Rain = 0
KREE 072157Z 17013KT 37/13 A30 RMK A01 T03650133  RH  025%=      5-min Rain = 0
KREE 072158Z 17010KT 37/13 A30 RMK A01 T03650133  RH  025%=      5-min Rain = 0
KREE 072159Z 18013G18KT 37/14 A30 RMK A01 T03650135  RH  025%=      5-min Rain = 0
KREE 072200Z 19014G19KT 37/13 A30 RMK A01 T03680134  RH  025%=      5-min Rain = 0
KREE 072201Z 20018KT 37/13 A30 RMK A01 T03700134  RH  024%=      5-min Rain = 0
KREE 072202Z 18012KT 37/13 A30 RMK A01 T03670132  RH  025%=      5-min Rain = 0
KREE 072203Z 16009KT 36/13 A30 RMK A01 T03630132  RH  025%=      5-min Rain = 0
KREE 072204Z 17008KT 36/13 A30 RMK A01 T03630133  RH  025%=      5-min Rain = 0
KREE 072205Z 16010G15KT 37/13 A30 RMK A01 T03650133  RH  025%=      5-min Rain = 0
KREE 072206Z 15010KT 36/13 A30 RMK A01 T03640134  RH  025%=      5-min Rain = 0
KREE 072207Z 16015G20KT 36/14 A30 RMK A01 T03640136  RH  026%=      5-min Rain = 0
KREE 072208Z 17017KT 37/13 A30 RMK A01 T03660134  RH  025%=      5-min Rain = 0
KREE 072209Z 17014KT 36/13 A30 RMK A01 T03640134  RH  025%=      5-min Rain = 0
KREE 072210Z 17010KT 36/14 A30 RMK A01 T03630135  RH  026%=      5-min Rain = 0
KREE 072211Z 18007KT 36/14 A30 RMK A01 T03620135  RH  026%=      5-min Rain = 0
KREE 072212Z 18008G13KT 36/14 A30 RMK A01 T03630135  RH  026%=      5-min Rain = 0
KREE 072213Z 17011G16KT 36/14 A30 RMK A01 T03640136  RH  026%=      5-min Rain = 0
KREE 072214Z 16013KT 36/14 A30 RMK A01 T03640135  RH  025%=      5-min Rain = 0
KREE 072215Z 14013KT 36/13 A30 RMK A01 T03630134  RH  025%=      5-min Rain = 0
KREE 072216Z 15014KT 36/13 A2999 RMK A01 T03620131  RH  025%=      5-min Rain = 0
KREE 072217Z 15015KT 36/13 A2999 RMK A01 T03640132  RH  025%=      5-min Rain = 0
KREE 072218Z 16016KT 37/13 A2999 RMK A01 T03650133  RH  025%=      5-min Rain = 0
KREE 072219Z 16017KT 36/13 A2999 RMK A01 T03630134  RH  025%=      5-min Rain = 0
KREE 072220Z 16016G21KT 36/13 A2999 RMK A01 T03620134  RH  026%=      5-min Rain = 0
KREE 072221Z 17014KT 36/13 A30 RMK A01 T03620133  RH  025%=      5-min Rain = 0
KREE 072222Z 18016KT 36/13 A30 RMK A01 T03620133  RH  025%=      5-min Rain = 0
KREE 072223Z 17014KT 36/13 A30 RMK A01 T03620133  RH  025%=      5-min Rain = 0
KREE 072224Z 17013G18KT 36/13 A30 RMK A01 T03610134  RH  026%=      5-min Rain = 0
KREE 072225Z 18012KT 36/13 A30 RMK A01 T03610132  RH  025%=      5-min Rain = 0
KREE 072226Z 18012KT 36/13 A30 RMK A01 T03610133  RH  026%=      5-min Rain = 0
KREE 072227Z 18011KT 36/13 A30 RMK A01 T03600133  RH  026%=      5-min Rain = 0
KREE 072228Z 19012KT 36/13 A30 RMK A01 T03610128  RH  025%=      5-min Rain = 0
KREE 072229Z 19010KT 36/13 A30 RMK A01 T03620126  RH  024%=      5-min Rain = 0
KREE 072230Z 19008KT 36/13 A30 RMK A01 T03600131  RH  025%=      5-min Rain = 0
KREE 072231Z 20007KT 36/13 A30 RMK A01 T03590132  RH  026%=      5-min Rain = 0
KREE 072232Z 19011KT 36/13 A30 RMK A01 T03570130  RH  026%=      5-min Rain = 0
KREE 072233Z 19012KT 36/13 A30 RMK A01 T03580127  RH  025%=      5-min Rain = 0
KREE 072234Z 19015KT 36/13 A30 RMK A01 T03600126  RH  025%=      5-min Rain = 0
KREE 072235Z 18014KT 36/13 A30 RMK A01 T03620126  RH  024%=      5-min Rain = 0
KREE 072236Z 18017KT 36/12 A30 RMK A01 T03630124  RH  024%=      5-min Rain = 0
KREE 072237Z 17012KT 36/12 A30 RMK A01 T03620122  RH  024%=      5-min Rain = 0
KREE 072238Z 17011KT 36/12 A30 RMK A01 T03610123  RH  024%=      5-min Rain = 0
KREE 072239Z 17012KT 36/13 A30 RMK A01 T03600125  RH  024%=      5-min Rain = 0
KREE 072240Z 18011KT 36/13 A30 RMK A01 T03600126  RH  024%=      5-min Rain = 0
KREE 072241Z 19010KT 36/13 A30 RMK A01 T03620126  RH  024%=      5-min Rain = 0
KREE 072242Z 19012KT 36/13 A30 RMK A01 T03620126  RH  024%=      5-min Rain = 0
KREE 072243Z 19011KT 36/13 A30 RMK A01 T03610127  RH  025%=      5-min Rain = 0
KREE 072244Z 17012KT 36/13 A30 RMK A01 T03600127  RH  025%=      5-min Rain = 0
KREE 072245Z 18013KT 36/13 A30 RMK A01 T03610126  RH  024%=      5-min Rain = 0
KREE 072246Z 18013KT 36/13 A30 RMK A01 T03600127  RH  025%=      5-min Rain = 0
KREE 072247Z 18012KT 36/13 A30 RMK A01 T03580127  RH  025%=      5-min Rain = 0
KREE 072248Z 18011KT 36/13 A30 RMK A01 T03580128  RH  025%=      5-min Rain = 0
KREE 072249Z 18009KT 36/13 A30 RMK A01 T03570128  RH  025%=      5-min Rain = 0
KREE 072250Z 18010KT 36/13 A2999 RMK A01 T03550128  RH  026%=      5-min Rain = 0
KREE 072251Z 17015KT 36/13 A2999 RMK A01 T03550130  RH  026%=      5-min Rain = 0
KREE 072252Z 16014KT 36/13 A2999 RMK A01 T03550131  RH  026%=      5-min Rain = 0
KREE 072253Z 15013KT 36/13 A2999 RMK A01 T03550133  RH  026%=      5-min Rain = 0
KREE 072254Z 15012KT 36/13 A2999 RMK A01 T03560133  RH  026%=      5-min Rain = 0
KREE 072255Z 15013KT 36/13 A2999 RMK A01 T03560132  RH  026%=      5-min Rain = 0
KREE 072256Z 15015KT 36/13 A2999 RMK A01 T03550132  RH  026%=      5-min Rain = 0
KREE 072257Z 15012KT 36/13 A2999 RMK A01 T03550132  RH  026%=      5-min Rain = 0
KREE 072258Z 16015KT 36/13 A2999 RMK A01 T03550131  RH  026%=      5-min Rain = 0
KREE 072259Z 17015KT 36/13 A2999 RMK A01 T03550131  RH  026%=      5-min Rain = 0
KREE 072300Z 18014KT 36/13 A2999 RMK A01 T03550130  RH  026%=      5-min Rain = 0
KREE 072301Z 18013KT 36/13 A2999 RMK A01 T03550130  RH  026%=      5-min Rain = 0
KREE 072302Z 18014KT 36/13 A2999 RMK A01 T03550130  RH  026%=      5-min Rain = 0
KREE 072303Z 18014KT 36/13 A2999 RMK A01 T03560131  RH  026%=      5-min Rain = 0
KREE 072304Z 17011KT 36/13 A2999 RMK A01 T03560132  RH  026%=      5-min Rain = 0
KREE 072305Z 17013KT 36/13 A2999 RMK A01 T03560133  RH  026%=      5-min Rain = 0
KREE 072306Z 15012KT 36/13 A2999 RMK A01 T03570133  RH  026%=      5-min Rain = 0
KREE 072307Z 16012KT 36/13 A2999 RMK A01 T03560133  RH  026%=      5-min Rain = 0
KREE 072308Z 17012KT 36/13 A2999 RMK A01 T03550130  RH  026%=      5-min Rain = 0
KREE 072309Z 16012KT 36/13 A2999 RMK A01 T03550130  RH  026%=      5-min Rain = 0
KREE 072310Z 16014KT 36/13 A2999 RMK A01 T03550130  RH  026%=      5-min Rain = 0
KREE 072311Z 16015KT 36/13 A2999 RMK A01 T03550128  RH  026%=      5-min Rain = 0
KREE 072312Z 16013KT 35/13 A2999 RMK A01 T03540129  RH  026%=      5-min Rain = 0
KREE 072313Z 16013KT 35/13 A2999 RMK A01 T03540130  RH  026%=      5-min Rain = 0
KREE 072314Z 16016KT 35/13 A2999 RMK A01 T03540129  RH  026%=      5-min Rain = 0
KREE 072315Z 16014KT 35/13 A2999 RMK A01 T03530129  RH  026%=      5-min Rain = 0
KREE 072316Z 15014KT 35/13 A2999 RMK A01 T03530130  RH  026%=      5-min Rain = 0
KREE 072317Z 15013KT 35/13 A2999 RMK A01 T03520131  RH  026%=      5-min Rain = 0
KREE 072318Z 16012KT 35/13 A2999 RMK A01 T03520132  RH  027%=      5-min Rain = 0
KREE 072319Z 16014KT 35/13 A2999 RMK A01 T03520131  RH  027%=      5-min Rain = 0
KREE 072320Z 17012KT 35/13 A2999 RMK A01 T03510132  RH  027%=      5-min Rain = 0
KREE 072321Z 17012KT 35/13 A2999 RMK A01 T03510131  RH  027%=      5-min Rain = 0
KREE 072322Z 17011KT 35/13 A2999 RMK A01 T03520129  RH  026%=      5-min Rain = 0
KREE 072323Z 17013G18KT 35/13 A2999 RMK A01 T03530129  RH  026%=      5-min Rain = 0
KREE 072324Z 17016KT 35/13 A2999 RMK A01 T03530128  RH  026%=      5-min Rain = 0
KREE 072325Z 17013G18KT 35/13 A2999 RMK A01 T03530128  RH  026%=      5-min Rain = 0
KREE 072326Z 17014KT 35/13 A2999 RMK A01 T03520128  RH  026%=      5-min Rain = 0
KREE 072327Z 16014KT 35/13 A2999 RMK A01 T03520127  RH  026%=      5-min Rain = 0
KREE 072328Z 16015KT 35/13 A2999 RMK A01 T03520127  RH  026%=      5-min Rain = 0
KREE 072329Z 17013KT 35/13 A2999 RMK A01 T03510126  RH  026%=      5-min Rain = 0
KREE 072330Z 17013KT 35/13 A2999 RMK A01 T03500126  RH  026%=      5-min Rain = 0
KREE 072331Z 17010KT 35/13 A2999 RMK A01 T03500127  RH  026%=      5-min Rain = 0
KREE 072332Z 16011KT 35/13 A2999 RMK A01 T03500127  RH  026%=      5-min Rain = 0
KREE 072333Z 15011KT 35/13 A2999 RMK A01 T03500127  RH  026%=      5-min Rain = 0
KREE 072334Z 16013KT 35/13 A2999 RMK A01 T03500128  RH  026%=      5-min Rain = 0
KREE 072335Z 16011KT 35/13 A2999 RMK A01 T03490128  RH  026%=      5-min Rain = 0
KREE 072336Z 15011KT 35/13 A2999 RMK A01 T03480128  RH  027%=      5-min Rain = 0
KREE 072337Z 15011KT 35/13 A2999 RMK A01 T03480128  RH  027%=      5-min Rain = 0
KREE 072338Z 15013KT 35/13 A2999 RMK A01 T03480128  RH  027%=      5-min Rain = 0
KREE 072339Z 15012G17KT 35/13 A2999 RMK A01 T03470129  RH  027%=      5-min Rain = 0
KREE 072340Z 16014KT 35/13 A2999 RMK A01 T03470129  RH  027%=      5-min Rain = 0
KREE 072341Z 16013KT 35/13 A2999 RMK A01 T03470129  RH  027%=      5-min Rain = 0
KREE 072342Z 16012KT 35/13 A2999 RMK A01 T03470128  RH  027%=      5-min Rain = 0
KREE 072343Z 16011KT 35/13 A2999 RMK A01 T03470128  RH  027%=      5-min Rain = 0
KREE 072344Z 16013KT 35/13 A2999 RMK A01 T03470129  RH  027%=      5-min Rain = 0
KREE 072345Z 16012KT 35/13 A2999 RMK A01 T03470128  RH  027%=      5-min Rain = 0
KREE 072346Z 16014KT 35/13 A2999 RMK A01 T03470128  RH  027%=      5-min Rain = 0
KREE 072347Z 16012KT 35/13 A2999 RMK A01 T03460128  RH  027%=      5-min Rain = 0
KREE 072348Z 16014KT 35/13 A2999 RMK A01 T03460129  RH  027%=      5-min Rain = 0
KREE 072349Z 16015KT 35/13 A2999 RMK A01 T03460128  RH  027%=      5-min Rain = 0
KREE 072350Z 16013KT 35/13 A2999 RMK A01 T03450128  RH  027%=      5-min Rain = 0
KREE 072351Z 16014KT 35/13 A2999 RMK A01 T03450128  RH  027%=      5-min Rain = 0
KREE 072352Z 16013KT 35/13 A30 RMK A01 T03450128  RH  027%=      5-min Rain = 0
KREE 072353Z 16017KT 35/13 A30 RMK A01 T03450128  RH  027%=      5-min Rain = 0
KREE 072354Z 17016KT 35/13 A30 RMK A01 T03450126  RH  027%=      5-min Rain = 0
KREE 072355Z 17015KT 35/13 A30 RMK A01 T03450126  RH  027%=      5-min Rain = 0
KREE 072356Z 16014G19KT 35/13 A30 RMK A01 T03450127  RH  027%=      5-min Rain = 0
KREE 072357Z 16013KT 35/13 A30 RMK A01 T03450128  RH  027%=      5-min Rain = 0
KREE 072358Z 17013KT 35/13 A30 RMK A01 T03450128  RH  027%=      5-min Rain = 0
KREE 072359Z 16013KT 34/13 A30 RMK A01 T03440128  RH  027%=      5-min Rain = 0
KREE 080000Z 16014KT 34/13 A30 RMK A01 T03440128  RH  027%=      5-min Rain = 0
KREE 080001Z 17012KT 34/13 A30 RMK A01 T03440127  RH  027%=      5-min Rain = 0
KREE 080002Z 17012KT 34/13 A30 RMK A01 T03440127  RH  027%=      5-min Rain = 0
KREE 080003Z 17013KT 34/13 A30 RMK A01 T03440127  RH  027%=      5-min Rain = 0
KREE 080004Z 17016KT 34/13 A30 RMK A01 T03440126  RH  027%=      5-min Rain = 0
KREE 080005Z 17016KT 34/13 A30 RMK A01 T03440125  RH  027%=      5-min Rain = 0
KREE 080006Z 17015KT 34/12 A30 RMK A01 T03440124  RH  027%=      5-min Rain = 0
KREE 080007Z 17014KT 34/12 A30 RMK A01 T03440124  RH  027%=      5-min Rain = 0
KREE 080008Z 18013KT 34/13 A30 RMK A01 T03440125  RH  027%=      5-min Rain = 0
KREE 080009Z 17015KT 34/13 A30 RMK A01 T03440125  RH  027%=      5-min Rain = 0
KREE 080010Z 18014KT 34/13 A30 RMK A01 T03430125  RH  027%=      5-min Rain = 0
KREE 080011Z 18016KT 34/13 A30 RMK A01 T03430125  RH  027%=      5-min Rain = 0
KREE 080012Z 18015KT 34/12 A30 RMK A01 T03430124  RH  027%=      5-min Rain = 0
KREE 080013Z 17016KT 34/12 A30 RMK A01 T03420124  RH  027%=      5-min Rain = 0
KREE 080014Z 17015KT 34/12 A30 RMK A01 T03420124  RH  027%=      5-min Rain = 0
KREE 080015Z 17016KT 34/12 A30 RMK A01 T03420124  RH  027%=      5-min Rain = 0
KREE 080016Z 17014KT 34/12 A30 RMK A01 T03420123  RH  027%=      5-min Rain = 0
KREE 080017Z 18014KT 34/12 A30 RMK A01 T03410123  RH  027%=      5-min Rain = 0
KREE 080018Z 17015KT 34/12 A30 RMK A01 T03410123  RH  027%=      5-min Rain = 0
KREE 080019Z 17018KT 34/12 A30 RMK A01 T03410121  RH  026%=      5-min Rain = 0
KREE 080020Z 17018KT 34/12 A30 RMK A01 T03410120  RH  026%=      5-min Rain = 0
KREE 080021Z 17017KT 34/12 A30 RMK A01 T03410119  RH  026%=      5-min Rain = 0
KREE 080022Z 17016G21KT 34/12 A3001 RMK A01 T03400119  RH  026%=      5-min Rain = 0
KREE 080023Z 17016KT 34/12 A3001 RMK A01 T03400119  RH  026%=      5-min Rain = 0
KREE 080024Z 17015KT 34/12 A3001 RMK A01 T03400118  RH  026%=      5-min Rain = 0
KREE 080025Z 17016KT 34/12 A3001 RMK A01 T03390118  RH  026%=      5-min Rain = 0
KREE 080026Z 17014KT 34/12 A3001 RMK A01 T03390118  RH  026%=      5-min Rain = 0
KREE 080027Z 17014KT 34/12 A30 RMK A01 T03390118  RH  026%=      5-min Rain = 0
KREE 080028Z 17015KT 34/12 A3001 RMK A01 T03390117  RH  026%=      5-min Rain = 0
KREE 080029Z 17013KT 34/12 A3001 RMK A01 T03390117  RH  026%=      5-min Rain = 0
KREE 080030Z 17014KT 34/12 A3001 RMK A01 T03380117  RH  026%=      5-min Rain = 0
KREE 080031Z 16015KT 34/12 A3001 RMK A01 T03380116  RH  026%=      5-min Rain = 0
KREE 080032Z 16015KT 34/12 A3001 RMK A01 T03380115  RH  026%=      5-min Rain = 0
KREE 080033Z 16015KT 34/12 A3001 RMK A01 T03380115  RH  026%=      5-min Rain = 0
KREE 080034Z 16015KT 34/12 A3001 RMK A01 T03370115  RH  026%=      5-min Rain = 0
KREE 080035Z 16014KT 34/11 A3001 RMK A01 T03370114  RH  026%=      5-min Rain = 0
KREE 080036Z 16014KT 34/11 A3001 RMK A01 T03370114  RH  026%=      5-min Rain = 0
KREE 080037Z 16012KT 34/11 A3001 RMK A01 T03370114  RH  026%=      5-min Rain = 0
KREE 080038Z 16012KT 34/11 A3001 RMK A01 T03360114  RH  026%=      5-min Rain = 0
KREE 080039Z 16012KT 34/12 A3001 RMK A01 T03360115  RH  026%=      5-min Rain = 0
KREE 080040Z 17013KT 34/11 A3001 RMK A01 T03350113  RH  026%=      5-min Rain = 0
KREE 080041Z 17013KT 34/11 A3001 RMK A01 T03350113  RH  026%=      5-min Rain = 0
KREE 080042Z 17013KT 34/11 A3001 RMK A01 T03350113  RH  026%=      5-min Rain = 0
KREE 080043Z 17013KT 34/11 A3001 RMK A01 T03360113  RH  026%=      5-min Rain = 0
KREE 080044Z 17013KT 34/11 A3001 RMK A01 T03360113  RH  026%=      5-min Rain = 0
KREE 080045Z 16012KT 34/11 A3001 RMK A01 T03360113  RH  026%=      5-min Rain = 0
KREE 080046Z 16013KT 34/11 A3001 RMK A01 T03360114  RH  026%=      5-min Rain = 0
KREE 080047Z 16012KT 34/11 A3001 RMK A01 T03350114  RH  026%=      5-min Rain = 0
KREE 080048Z 16012KT 34/11 A3001 RMK A01 T03350114  RH  026%=      5-min Rain = 0
KREE 080049Z 16013KT 34/11 A3001 RMK A01 T03350114  RH  026%=      5-min Rain = 0
KREE 080050Z 17013KT 34/11 A3001 RMK A01 T03350114  RH  026%=      5-min Rain = 0
KREE 080051Z 16011KT 34/12 A3001 RMK A01 T03350115  RH  026%=      5-min Rain = 0
KREE 080052Z 16011KT 34/12 A3001 RMK A01 T03350115  RH  026%=      5-min Rain = 0
KREE 080053Z 16013KT 33/12 A3001 RMK A01 T03340115  RH  026%=      5-min Rain = 0
KREE 080054Z 16011KT 33/12 A3001 RMK A01 T03340115  RH  026%=      5-min Rain = 0
KREE 080055Z 16012KT 33/12 A3001 RMK A01 T03340116  RH  026%=      5-min Rain = 0
KREE 080056Z 16010KT 33/12 A3001 RMK A01 T03340116  RH  027%=      5-min Rain = 0
KREE 080057Z 16010KT 33/12 A3001 RMK A01 T03330116  RH  027%=      5-min Rain = 0
KREE 080058Z 16011KT 33/12 A3001 RMK A01 T03330116  RH  027%=      5-min Rain = 0
KREE 080059Z 16011KT 33/12 A3001 RMK A01 T03330116  RH  027%=      5-min Rain = 0
KREE 080100Z 16010KT 33/12 A3001 RMK A01 T03330117  RH  027%=      5-min Rain = 0
KREE 080101Z 16010KT 33/12 A3002 RMK A01 T03330117  RH  027%=      5-min Rain = 0
KREE 080102Z 16010KT 33/12 A3002 RMK A01 T03330117  RH  027%=      5-min Rain = 0
KREE 080103Z 16009KT 33/12 A3002 RMK A01 T03320117  RH  027%=      5-min Rain = 0
KREE 080104Z 17009KT 33/12 A3002 RMK A01 T03320118  RH  027%=      5-min Rain = 0
KREE 080105Z 17010KT 33/12 A3002 RMK A01 T03320118  RH  027%=      5-min Rain = 0
KREE 080106Z 17009KT 33/12 A3002 RMK A01 T03320118  RH  027%=      5-min Rain = 0
KREE 080107Z 17009KT 33/12 A3002 RMK A01 T03320118  RH  027%=      5-min Rain = 0
KREE 080108Z 17009KT 33/12 A3002 RMK A01 T03320118  RH  027%=      5-min Rain = 0
KREE 080109Z 16007KT 33/12 A3002 RMK A01 T03320118  RH  027%=      5-min Rain = 0
KREE 080110Z 16008KT 33/12 A3002 RMK A01 T03320119  RH  027%=      5-min Rain = 0
KREE 080111Z 17007KT 33/12 A3002 RMK A01 T03310120  RH  028%=      5-min Rain = 0
KREE 080112Z 17008KT 33/12 A3002 RMK A01 T03300120  RH  028%=      5-min Rain = 0
KREE 080113Z 17006KT 33/12 A3003 RMK A01 T03300120  RH  028%=      5-min Rain = 0
KREE 080114Z 17006KT 33/12 A3003 RMK A01 T03300121  RH  028%=      5-min Rain = 0
KREE 080115Z 17006KT 33/12 A3003 RMK A01 T03290121  RH  028%=      5-min Rain = 0
KREE 080116Z 17005KT 33/12 A3003 RMK A01 T03290120  RH  028%=      5-min Rain = 0
KREE 080117Z 17004KT 33/12 A3003 RMK A01 T03290121  RH  028%=      5-min Rain = 0
KREE 080118Z 17004KT 33/12 A3003 RMK A01 T03290121  RH  028%=      5-min Rain = 0
KREE 080119Z 18004KT 33/12 A3003 RMK A01 T03290121  RH  028%=      5-min Rain = 0
KREE 080120Z 19003KT 33/12 A3003 RMK A01 T03280121  RH  028%=      5-min Rain = 0
KREE 080121Z 21002KT 33/12 A3003 RMK A01 T03280120  RH  028%=      5-min Rain = 0
KREE 080122Z 20001KT 33/12 A3003 RMK A01 T03280120  RH  028%=      5-min Rain = 0
KREE 080123Z 21001KT 33/12 A3003 RMK A01 T03280121  RH  028%=      5-min Rain = 0
KREE 080124Z 27002KT 33/12 A3003 RMK A01 T03270122  RH  029%=      5-min Rain = 0
KREE 080125Z 23002KT 33/12 A3003 RMK A01 T03260123  RH  029%=      5-min Rain = 0
KREE 080126Z 28002KT 33/12 A3003 RMK A01 T03260123  RH  029%=      5-min Rain = 0
KREE 080127Z 27002KT 32/13 A3003 RMK A01 T03240126  RH  030%=      5-min Rain = 0
KREE 080128Z 32003KT 32/13 A3003 RMK A01 T03220133  RH  032%=      5-min Rain = 0
KREE 080129Z 32002KT 32/14 A3003 RMK A01 T03190137  RH  033%=      5-min Rain = 0
KREE 080130Z 32001KT 32/14 A3003 RMK A01 T03170137  RH  034%=      5-min Rain = 0
KREE 080131Z 31001KT 32/14 A3003 RMK A01 T03150138  RH  034%=      5-min Rain = 0
KREE 080132Z 30002KT 31/14 A3003 RMK A01 T03140138  RH  034%=      5-min Rain = 0
KREE 080133Z 32001KT 31/14 A3003 RMK A01 T03140138  RH  034%=      5-min Rain = 0
KREE 080134Z 32000KT 31/14 A3003 RMK A01 T03130139  RH  035%=      5-min Rain = 0
KREE 080135Z 32000KT 31/14 A3003 RMK A01 T03130139  RH  035%=      5-min Rain = 0
KREE 080136Z 31001KT 31/14 A3002 RMK A01 T03120138  RH  035%=      5-min Rain = 0
KREE 080137Z 30000KT 31/14 A3002 RMK A01 T03130137  RH  034%=      5-min Rain = 0
KREE 080138Z 29000KT 31/14 A3002 RMK A01 T03130138  RH  035%=      5-min Rain = 0
KREE 080139Z 00000KT 31/14 A3002 RMK A01 T03120138  RH  035%=      5-min Rain = 0
KREE 080140Z 31000KT 31/14 A3002 RMK A01 T03120138  RH  035%=      5-min Rain = 0
KREE 080141Z 00000KT 31/14 A3003 RMK A01 T03120138  RH  035%=      5-min Rain = 0
KREE 080142Z 00000KT 31/14 A3003 RMK A01 T03120139  RH  035%=      5-min Rain = 0
KREE 080143Z 18001KT 31/14 A3003 RMK A01 T03120139  RH  035%=      5-min Rain = 0
KREE 080144Z 14002KT 31/13 A3003 RMK A01 T03120133  RH  034%=      5-min Rain = 0
KREE 080145Z 14003KT 31/13 A3003 RMK A01 T03120132  RH  033%=      5-min Rain = 0
KREE 080146Z 17003KT 31/13 A3003 RMK A01 T03130127  RH  032%=      5-min Rain = 0
KREE 080147Z 16004KT 32/13 A3003 RMK A01 T03150125  RH  031%=      5-min Rain = 0
KREE 080148Z 16005KT 32/12 A3003 RMK A01 T03160124  RH  031%=      5-min Rain = 0
KREE 080149Z 16005KT 32/12 A3003 RMK A01 T03180124  RH  031%=      5-min Rain = 0
KREE 080150Z 16007KT 32/12 A3003 RMK A01 T03190124  RH  030%=      5-min Rain = 0
KREE 080151Z 16006KT 32/12 A3003 RMK A01 T03200123  RH  030%=      5-min Rain = 0
KREE 080152Z 17006KT 32/12 A3003 RMK A01 T03210124  RH  030%=      5-min Rain = 0
KREE 080153Z 17007KT 32/12 A3003 RMK A01 T03210123  RH  030%=      5-min Rain = 0
KREE 080154Z 17007KT 32/12 A3003 RMK A01 T03210123  RH  030%=      5-min Rain = 0
KREE 080155Z 16008KT 32/12 A3003 RMK A01 T03220123  RH  030%=      5-min Rain = 0
KREE 080156Z 17008KT 32/12 A3003 RMK A01 T03220123  RH  030%=      5-min Rain = 0
KREE 080157Z 16008KT 32/12 A3003 RMK A01 T03220122  RH  030%=      5-min Rain = 0
KREE 080158Z 17007KT 32/12 A3003 RMK A01 T03220123  RH  030%=      5-min Rain = 0
KREE 080159Z 17008KT 32/12 A3003 RMK A01 T03220123  RH  030%=      5-min Rain = 0
KREE 080200Z 17008KT 32/12 A3003 RMK A01 T03220123  RH  030%=      5-min Rain = 0
KREE 080201Z 17010KT 32/12 A3003 RMK A01 T03220123  RH  030%=      5-min Rain = 0
KREE 080202Z 16009KT 32/12 A3003 RMK A01 T03220123  RH  030%=      5-min Rain = 0
KREE 080203Z 17010KT 32/12 A3003 RMK A01 T03220123  RH  030%=      5-min Rain = 0
KREE 080204Z 17009KT 32/12 A3003 RMK A01 T03220123  RH  030%=      5-min Rain = 0
KREE 080205Z 17008KT 32/13 A3003 RMK A01 T03230125  RH  030%=      5-min Rain = 0
KREE 080206Z 16009KT 32/13 A3003 RMK A01 T03220127  RH  030%=      5-min Rain = 0
KREE 080207Z 17009KT 32/13 A3003 RMK A01 T03210128  RH  031%=      5-min Rain = 0
KREE 080208Z 17010KT 32/13 A3003 RMK A01 T03210129  RH  031%=      5-min Rain = 0
KREE 080209Z 16010KT 32/13 A3003 RMK A01 T03210129  RH  031%=      5-min Rain = 0
KREE 080210Z 17010KT 32/13 A3003 RMK A01 T03200130  RH  031%=      5-min Rain = 0
KREE 080211Z 16010KT 32/13 A3003 RMK A01 T03200129  RH  031%=      5-min Rain = 0
KREE 080212Z 17010KT 32/13 A3003 RMK A01 T03200130  RH  031%=      5-min Rain = 0
KREE 080213Z 17009KT 32/13 A3004 RMK A01 T03200131  RH  032%=      5-min Rain = 0
KREE 080214Z 17009KT 32/13 A3004 RMK A01 T03190132  RH  032%=      5-min Rain = 0
KREE 080215Z 17009KT 32/13 A3004 RMK A01 T03190133  RH  032%=      5-min Rain = 0
KREE 080216Z 17012KT 32/13 A3004 RMK A01 T03180132  RH  032%=      5-min Rain = 0
KREE 080217Z 17010KT 32/13 A3004 RMK A01 T03180131  RH  032%=      5-min Rain = 0
KREE 080218Z 17010KT 32/13 A3004 RMK A01 T03180132  RH  032%=      5-min Rain = 0
KREE 080219Z 17009KT 32/13 A3004 RMK A01 T03180132  RH  032%=      5-min Rain = 0
KREE 080220Z 17010KT 32/13 A3004 RMK A01 T03180132  RH  032%=      5-min Rain = 0
KREE 080221Z 18010KT 32/13 A3004 RMK A01 T03180132  RH  032%=      5-min Rain = 0
KREE 080222Z 18010KT 32/13 A3004 RMK A01 T03180134  RH  033%=      5-min Rain = 0
KREE 080223Z 18010KT 32/13 A3005 RMK A01 T03180132  RH  032%=      5-min Rain = 0
KREE 080224Z 18009KT 32/13 A3005 RMK A01 T03170133  RH  032%=      5-min Rain = 0
KREE 080225Z 18009KT 32/13 A3005 RMK A01 T03170133  RH  033%=      5-min Rain = 0
KREE 080226Z 19009KT 32/13 A3005 RMK A01 T03160134  RH  033%=      5-min Rain = 0
KREE 080227Z 20009KT 32/14 A3006 RMK A01 T03160136  RH  034%=      5-min Rain = 0
KREE 080228Z 21010KT 32/14 A3006 RMK A01 T03150139  RH  034%=      5-min Rain = 0
KREE 080229Z 23012KT 31/14 A3006 RMK A01 T03140141  RH  035%=      5-min Rain = 0
KREE 080230Z 26019G30KT 31/15 A3006 RMK A01 T03090146  RH  037%=      5-min Rain = 0
KREE 080231Z 32029G35KT 29/15 A3006 RMK A01 T02910150  RH  042%=      5-min Rain = 0
KREE 080232Z 33023KT 28/15 A3007 RMK A01 T02750151  RH  047%=      5-min Rain = 0
KREE 080233Z 33018G23KT 27/15 A3007 RMK A01 T02660154  RH  050%=      5-min Rain = 0
KREE 080234Z 31020G26KT 26/16 A3007 RMK A01 T02600156  RH  053%=      5-min Rain = 0
KREE 080235Z 31018G24KT 26/16 A3007 RMK A01 T02570156  RH  054%=      5-min Rain = 0
KREE 080236Z 31022G27KT 26/16 A3007 RMK A01 T02550156  RH  054%=      5-min Rain = 0
KREE 080237Z 31018G23KT 26/15 A3008 RMK A01 T02570154  RH  053%=      5-min Rain = 0
KREE 080238Z 31022G30KT 26/15 A3008 RMK A01 T02580153  RH  052%=      5-min Rain = 0
KREE 080239Z 30025G32KT 26/15 A3007 RMK A01 T02580153  RH  053%=      5-min Rain = 0
KREE 080240Z 30030G38KT 26/15 A3007 RMK A01 T02550152  RH  053%=      5-min Rain = 0
KREE 080241Z 30029G37KT 25/15 A3008 RMK A01 T02510154  RH  055%=      5-min Rain = 0
KREE 080242Z 29028G33KT 25/16 A3009 RMK A01 T02480155  RH  056%=      5-min Rain = 0
KREE 080243Z 28023G28KT 25/16 A301 RMK A01 T02460159  RH  058%=      5-min Rain = 0
KREE 080244Z 29019KT 24/16 A301 RMK A01 T02440161  RH  060%=      5-min Rain = 0
KREE 080245Z 30024G31KT 24/16 A301 RMK A01 T02400162  RH  061%=      5-min Rain = 0
KREE 080246Z 30023G29KT 24/16 A301 RMK A01 T02370162  RH  063%=      5-min Rain = 0
KREE 080247Z 30019KT 23/16 A301 RMK A01 T02340164  RH  065%=      5-min Rain = 0
KREE 080248Z 30019KT 23/17 A301 RMK A01 T02320165  RH  066%=      5-min Rain = 0
KREE 080249Z 30021G31KT 23/17 A3009 RMK A01 T02300165  RH  067%=      5-min Rain = 0
KREE 080250Z 31032G39KT 23/16 A3008 RMK A01 T02300162  RH  066%=      5-min Rain = 0
KREE 080251Z 32037G43KT 24/16 A3008 RMK A01 T02360158  RH  062%=      5-min Rain = 0
KREE 080252Z 31025G32KT 24/16 A3009 RMK A01 T02390159  RH  061%=      5-min Rain = 0
KREE 080253Z 30031G38KT 24/15 A3009 RMK A01 T02410154  RH  058%=      5-min Rain = 0
KREE 080254Z 30030G36KT 25/15 A3009 RMK A01 T02500150  RH  054%=      5-min Rain = 0
KREE 080255Z 30022G30KT 25/15 A301 RMK A01 T02520152  RH  054%=      5-min Rain = 0
KREE 080256Z 29024G29KT 25/15 A301 RMK A01 T02520149  RH  053%=      5-min Rain = 0
KREE 080257Z 29022KT 25/15 A301 RMK A01 T02530150  RH  053%=      5-min Rain = 0
KREE 080258Z 28019G28KT 25/15 A3011 RMK A01 T02530148  RH  052%=      5-min Rain = 0
KREE 080259Z 27018G23KT 25/15 A3011 RMK A01 T02530145  RH  051%=      5-min Rain = 0
KREE 080300Z 28017G28KT 26/15 A3011 RMK A01 T02550147  RH  051%=      5-min Rain = 0
KREE 080301Z 29018KT 25/15 A3011 RMK A01 T02530150  RH  053%=      5-min Rain = 0
KREE 080302Z 30020G26KT 25/15 A3011 RMK A01 T02510152  RH  054%=      5-min Rain = 0
KREE 080303Z 30020G29KT 25/15 A301 RMK A01 T02490153  RH  055%=      5-min Rain = 0
KREE 080304Z 30026G33KT 25/15 A301 RMK A01 T02480154  RH  056%=      5-min Rain = 0
KREE 080305Z 29024G32KT 25/15 A301 RMK A01 T02470152  RH  055%=      5-min Rain = 0
KREE 080306Z 30025G32KT 25/15 A301 RMK A01 T02460153  RH  056%=      5-min Rain = 0
KREE 080307Z 29029G37KT 25/15 A301 RMK A01 T02480149  RH  054%=      5-min Rain = 0
KREE 080308Z 31024G32KT 25/15 A301 RMK A01 T02520149  RH  053%=      5-min Rain = 0
KREE 080309Z 30027G36KT 25/15 A301 RMK A01 T02530148  RH  052%=      5-min Rain = 0
KREE 080310Z 30022G30KT 25/15 A301 RMK A01 T02520152  RH  054%=      5-min Rain = 0
KREE 080311Z 31024G29KT 25/15 A3011 RMK A01 T02500153  RH  055%=      5-min Rain = 0
KREE 080312Z 31024G30KT 25/15 A3011 RMK A01 T02490153  RH  055%=      5-min Rain = 0
KREE 080313Z 30025G30KT 25/16 A3011 RMK A01 T02470156  RH  057%=      5-min Rain = 0
KREE 080314Z 31024G30KT 25/16 A3011 RMK A01 T02450156  RH  058%=      5-min Rain = 0
KREE 080315Z 30021G26KT 24/16 A3011 RMK A01 T02420158  RH  059%=      5-min Rain = 0
KREE 080316Z 30020G26KT 24/16 A3011 RMK A01 T02400160  RH  061%=      5-min Rain = 0
KREE 080317Z 30020G26KT 24/16 A3011 RMK A01 T02380164  RH  063%=      5-min Rain = 0
KREE 080318Z 30019KT 24/17 A3011 RMK A01 T02350166  RH  065%=      5-min Rain = 0
KREE 080319Z 30020G25KT 23/17 A3011 RMK A01 T02330167  RH  066%=      5-min Rain = 0
KREE 080320Z 30018G24KT 23/17 A3011 RMK A01 T02300172  RH  069%=      5-min Rain = 0
KREE 080321Z 31018G25KT 23/17 A3011 RMK A01 T02270174  RH  072%=      5-min Rain = 0
KREE 080322Z 30019KT 22/18 A3011 RMK A01 T02230175  RH  074%=      5-min Rain = 0
KREE 080323Z 31018G23KT 22/18 A3011 RMK A01 T02210175  RH  075%=      5-min Rain = 0
KREE 080324Z 31014G21KT 22/18 A3012 RMK A01 T02200176  RH  076%=      5-min Rain = 0
KREE 080325Z 30017G23KT 22/18 A3012 RMK A01 T02190176  RH  077%=      5-min Rain = 0
KREE 080326Z 30021G26KT 22/18 A3011 RMK A01 T02180176  RH  077%=      5-min Rain = 0
KREE 080327Z 30019G24KT 22/17 A3012 RMK A01 T02200173  RH  075%=      5-min Rain = 0
KREE 080328Z 30021G28KT 22/17 A3012 RMK A01 T02210172  RH  074%=      5-min Rain = 0
KREE 080329Z 31022KT 22/17 A3012 RMK A01 T02220169  RH  072%=      5-min Rain = 0
KREE 080330Z 31019G24KT 22/17 A3012 RMK A01 T02230170  RH  072%=      5-min Rain = 0
KREE 080331Z 31021KT 22/17 A3012 RMK A01 T02230170  RH  072%=      5-min Rain = 0
KREE 080332Z 31018G25KT 22/17 A3012 RMK A01 T02230171  RH  072%=      5-min Rain = 0
KREE 080333Z 30017KT 22/17 A3012 RMK A01 T02240171  RH  072%=      5-min Rain = 0
KREE 080334Z 30018G23KT 22/17 A3012 RMK A01 T02230172  RH  073%=      5-min Rain = 0
KREE 080335Z 30017G22KT 22/17 A3012 RMK A01 T02230169  RH  071%=      5-min Rain = 0
KREE 080336Z 30019KT 22/17 A3012 RMK A01 T02240171  RH  072%=      5-min Rain = 0
KREE 080337Z 31019KT 22/17 A3012 RMK A01 T02240171  RH  072%=      5-min Rain = 0
KREE 080338Z 31018G23KT 22/17 A3012 RMK A01 T02240170  RH  071%=      5-min Rain = 0
KREE 080339Z 31019KT 23/17 A3012 RMK A01 T02250170  RH  071%=      5-min Rain = 0
KREE 080340Z 31019G24KT 23/17 A3012 RMK A01 T02250171  RH  072%=      5-min Rain = 0
KREE 080341Z 31020G25KT 23/17 A3012 RMK A01 T02250170  RH  071%=      5-min Rain = 0
KREE 080342Z 31018KT 23/17 A3012 RMK A01 T02250170  RH  071%=      5-min Rain = 0
KREE 080343Z 31016KT 23/17 A3013 RMK A01 T02250171  RH  071%=      5-min Rain = 0
KREE 080344Z 30017KT 23/17 A3013 RMK A01 T02250173  RH  072%=      5-min Rain = 0
KREE 080345Z 30017KT 22/18 A3013 RMK A01 T02230175  RH  074%=      5-min Rain = 0
KREE 080346Z 30017G22KT 22/18 A3013 RMK A01 T02220176  RH  075%=      5-min Rain = 0
KREE 080347Z 30018G23KT 22/18 A3013 RMK A01 T02200178  RH  077%=      5-min Rain = 0
KREE 080348Z 30017KT 22/18 A3013 RMK A01 T02190178  RH  077%=      5-min Rain = 0
KREE 080349Z 29018G24KT 22/18 A3013 RMK A01 T02190178  RH  078%=      5-min Rain = 0
KREE 080350Z 29017KT 22/18 A3013 RMK A01 T02190178  RH  077%=      5-min Rain = 0
KREE 080351Z 29017G22KT 22/18 A3013 RMK A01 T02200179  RH  078%=      5-min Rain = 0
KREE 080352Z 29018KT 22/18 A3013 RMK A01 T02190180  RH  078%=      5-min Rain = 0
KREE 080353Z 29017KT 22/18 A3013 RMK A01 T02180180  RH  079%=      5-min Rain = 0
KREE 080354Z 29018KT 22/18 A3013 RMK A01 T02170180  RH  079%=      5-min Rain = 0
KREE 080355Z 30019G24KT 22/18 A3013 RMK A01 T02170178  RH  079%=      5-min Rain = 0
KREE 080356Z 30019G25KT 22/18 A3013 RMK A01 T02180176  RH  077%=      5-min Rain = 0
KREE 080357Z 30021G28KT 22/18 A3013 RMK A01 T02200175  RH  075%=      5-min Rain = 0
KREE 080358Z 30021G27KT 22/17 A3013 RMK A01 T02230174  RH  074%=      5-min Rain = 0
KREE 080359Z 30020KT 22/18 A3013 RMK A01 T02240175  RH  074%=      5-min Rain = 0
KREE 080400Z 29023G28KT 22/18 A3013 RMK A01 T02230175  RH  074%=      5-min Rain = 0
KREE 080401Z 29024KT 22/17 A3013 RMK A01 T02230174  RH  074%=      5-min Rain = 0
KREE 080402Z 29021G26KT 22/18 A3014 RMK A01 T02230175  RH  074%=      5-min Rain = 0
KREE 080403Z 29021G26KT 22/18 A3014 RMK A01 T02220176  RH  075%=      5-min Rain = 0
KREE 080404Z 29021G26KT 22/18 A3014 RMK A01 T02220177  RH  076%=      5-min Rain = 0
KREE 080405Z 29019G24KT 22/18 A3014 RMK A01 T02210177  RH  076%=      5-min Rain = 0
KREE 080406Z 29022G27KT 22/18 A3014 RMK A01 T02210177  RH  076%=      5-min Rain = 0
KREE 080407Z 29022G27KT 22/18 A3014 RMK A01 T02220175  RH  075%=      5-min Rain = 0
KREE 080408Z 29021G26KT 22/18 A3014 RMK A01 T02240176  RH  074%=      5-min Rain = 0
KREE 080409Z 29022G28KT 23/18 A3014 RMK A01 T02250176  RH  074%=      5-min Rain = 0
KREE 080410Z 29024G32KT 23/18 A3014 RMK A01 T02250175  RH  073%=      5-min Rain = 0
KREE 080411Z 29025G31KT 23/18 A3014 RMK A01 T02250175  RH  073%=      5-min Rain = 0
KREE 080412Z 29025G33KT 22/17 A3014 RMK A01 T02240172  RH  072%=      5-min Rain = 0
KREE 080413Z 29024G30KT 23/17 A3014 RMK A01 T02250173  RH  073%=      5-min Rain = 0
KREE 080414Z 29023G29KT 22/17 A3014 RMK A01 T02240173  RH  073%=      5-min Rain = 0
KREE 080415Z 29022G27KT 22/18 A3014 RMK A01 T02230175  RH  074%=      5-min Rain = 0
KREE 080416Z 29023G29KT 22/17 A3014 RMK A01 T02220174  RH  075%=      5-min Rain = 0
KREE 080417Z 29022G28KT 22/18 A3015 RMK A01 T02210175  RH  075%=      5-min Rain = 0
KREE 080418Z 29021G26KT 22/18 A3015 RMK A01 T02210175  RH  075%=      5-min Rain = 0
KREE 080419Z 29020G25KT 22/18 A3015 RMK A01 T02200176  RH  076%=      5-min Rain = 0
KREE 080420Z 29021KT 22/18 A3015 RMK A01 T02200176  RH  076%=      5-min Rain = 0
KREE 080421Z 29021G26KT 22/18 A3015 RMK A01 T02200176  RH  076%=      5-min Rain = 0
KREE 080422Z 28019G24KT 22/18 A3015 RMK A01 T02200177  RH  077%=      5-min Rain = 0
KREE 080423Z 28020G27KT 22/18 A3015 RMK A01 T02190177  RH  077%=      5-min Rain = 0
KREE 080424Z 28019KT 22/18 A3015 RMK A01 T02190177  RH  077%=      5-min Rain = 0
KREE 080425Z 28019G24KT 22/18 A3015 RMK A01 T02190178  RH  077%=      5-min Rain = 0
KREE 080426Z 27020G28KT 22/18 A3016 RMK A01 T02190177  RH  077%=      5-min Rain = 0
KREE 080427Z 28019G26KT 22/18 A3016 RMK A01 T02190178  RH  078%=      5-min Rain = 0
KREE 080428Z 27021G27KT 22/18 A3016 RMK A01 T02180177  RH  078%=      5-min Rain = 0
KREE 080429Z 27021G27KT 22/18 A3016 RMK A01 T02180177  RH  078%=      5-min Rain = 0
KREE 080430Z 28023KT 22/18 A3016 RMK A01 T02170176  RH  077%=      5-min Rain = 0
KREE 080431Z 28020G27KT 22/18 A3016 RMK A01 T02170176  RH  078%=      5-min Rain = 0
KREE 080432Z 28020G25KT 22/18 A3016 RMK A01 T02160177  RH  078%=      5-min Rain = 0
KREE 080433Z 28020KT 22/18 A3016 RMK A01 T02160176  RH  078%=      5-min Rain = 0
KREE 080434Z 28019G24KT 22/18 A3016 RMK A01 T02150177  RH  078%=      5-min Rain = 0
KREE 080435Z 28020G27KT 22/18 A3016 RMK A01 T02150175  RH  078%=      5-min Rain = 0
KREE 080436Z 28019KT 22/17 A3016 RMK A01 T02150174  RH  077%=      5-min Rain = 0
KREE 080437Z 28018G23KT 22/18 A3016 RMK A01 T02150175  RH  078%=      5-min Rain = 0
KREE 080438Z 28021G26KT 22/17 A3016 RMK A01 T02150174  RH  077%=      5-min Rain = 0
KREE 080439Z 28019G24KT 22/17 A3016 RMK A01 T02150173  RH  077%=      5-min Rain = 0
KREE 080440Z 28021G28KT 22/17 A3015 RMK A01 T02160172  RH  076%=      5-min Rain = 0
KREE 080441Z 28020G26KT 22/17 A3015 RMK A01 T02160171  RH  076%=      5-min Rain = 0
KREE 080442Z 28018KT 22/17 A3015 RMK A01 T02160171  RH  075%=      5-min Rain = 0
KREE 080443Z 28019G24KT 22/17 A3015 RMK A01 T02160172  RH  076%=      5-min Rain = 0
KREE 080444Z 28021G26KT 22/17 A3015 RMK A01 T02160170  RH  075%=      5-min Rain = 0
KREE 080445Z 28020KT 22/17 A3015 RMK A01 T02160170  RH  075%=      5-min Rain = 0
KREE 080446Z 28020G25KT 22/17 A3015 RMK A01 T02160170  RH  075%=      5-min Rain = 0
KREE 080447Z 28020KT 22/17 A3015 RMK A01 T02170168  RH  074%=      5-min Rain = 0
KREE 080448Z 28021G26KT 22/17 A3015 RMK A01 T02180167  RH  073%=      5-min Rain = 0
KREE 080449Z 28022G27KT 22/17 A3015 RMK A01 T02190165  RH  071%=      5-min Rain = 0
KREE 080450Z 28021KT 22/16 A3015 RMK A01 T02210162  RH  069%=      5-min Rain = 0
KREE 080451Z 28018G23KT 22/16 A3015 RMK A01 T02230163  RH  069%=      5-min Rain = 0
KREE 080452Z 28019G25KT 22/16 A3015 RMK A01 T02230163  RH  068%=      5-min Rain = 0
KREE 080453Z 28017KT 22/16 A3015 RMK A01 T02230162  RH  068%=      5-min Rain = 0
KREE 080454Z 28018KT 22/16 A3015 RMK A01 T02230163  RH  069%=      5-min Rain = 0
KREE 080455Z 28017G22KT 22/16 A3015 RMK A01 T02230163  RH  069%=      5-min Rain = 0
KREE 080456Z 28019G24KT 22/16 A3015 RMK A01 T02220162  RH  069%=      5-min Rain = 0
KREE 080457Z 28020G25KT 22/16 A3015 RMK A01 T02230160  RH  067%=      5-min Rain = 0
KREE 080458Z 28019KT 22/16 A3015 RMK A01 T02240160  RH  067%=      5-min Rain = 0
KREE 080459Z 28017KT 22/16 A3015 RMK A01 T02240163  RH  068%=      5-min Rain = 0

Page generated in 0.0717 seconds.